<?xml version="1.0" encoding="UTF-8" standalone="no" ?>
<gpx xmlns="http://www.topografix.com/GPX/1/1" xmlns:xsi="http://www.w3.org/2001/XMLSchema-instance" xsi:schemaLocation="http://www.topografix.com/GPX/1/1 http://www.topografix.com/GPX/1/1/gpx.xsd" version="1.1" creator="VisuGPX - https://www.visugpx.com">
  <metadata>
    <name>BPM - BEAUFOUR DRUVAL</name>
    <desc><![CDATA[Merville Franceville 3]]></desc>
  </metadata>
  <trk>
    <name><![CDATA[BPM - BEAUFOUR DRUVAL_1]]></name>
    <trkseg>
      <trkpt lat="49.21467" lon="0.02448">
        <ele>140.5</ele>
        <time>2017-05-28T08:07:41Z</time>
      </trkpt>
      <trkpt lat="49.21468" lon="0.02448">
        <ele>140.5</ele>
        <time>2017-05-28T08:07:41Z</time>
      </trkpt>
      <trkpt lat="49.21474" lon="0.02447">
        <ele>141.4</ele>
        <time>2017-05-28T08:07:48Z</time>
      </trkpt>
      <trkpt lat="49.21481" lon="0.02444">
        <ele>142.4</ele>
        <time>2017-05-28T08:07:55Z</time>
      </trkpt>
      <trkpt lat="49.21486" lon="0.02437">
        <ele>142.6</ele>
        <time>2017-05-28T08:08:02Z</time>
      </trkpt>
      <trkpt lat="49.21488" lon="0.02429">
        <ele>142.9</ele>
        <time>2017-05-28T08:08:09Z</time>
      </trkpt>
      <trkpt lat="49.2149" lon="0.02418">
        <ele>143.9</ele>
        <time>2017-05-28T08:08:16Z</time>
      </trkpt>
      <trkpt lat="49.21492" lon="0.02408">
        <ele>144.6</ele>
        <time>2017-05-28T08:08:23Z</time>
      </trkpt>
      <trkpt lat="49.21494" lon="0.02396">
        <ele>145.2</ele>
        <time>2017-05-28T08:08:30Z</time>
      </trkpt>
      <trkpt lat="49.21495" lon="0.02386">
        <ele>146</ele>
        <time>2017-05-28T08:08:37Z</time>
      </trkpt>
      <trkpt lat="49.21497" lon="0.02375">
        <ele>146.6</ele>
        <time>2017-05-28T08:08:43Z</time>
      </trkpt>
      <trkpt lat="49.21498" lon="0.02364">
        <ele>147.1</ele>
        <time>2017-05-28T08:08:48Z</time>
      </trkpt>
      <trkpt lat="49.21498" lon="0.02352">
        <ele>147.5</ele>
        <time>2017-05-28T08:08:54Z</time>
      </trkpt>
      <trkpt lat="49.21499" lon="0.0234">
        <ele>147.8</ele>
        <time>2017-05-28T08:09:01Z</time>
      </trkpt>
      <trkpt lat="49.21502" lon="0.02328">
        <ele>146.9</ele>
        <time>2017-05-28T08:09:07Z</time>
      </trkpt>
      <trkpt lat="49.21502" lon="0.02316">
        <ele>146.2</ele>
        <time>2017-05-28T08:09:12Z</time>
      </trkpt>
      <trkpt lat="49.21503" lon="0.02306">
        <ele>145.5</ele>
        <time>2017-05-28T08:09:17Z</time>
      </trkpt>
      <trkpt lat="49.21502" lon="0.02294">
        <ele>145.3</ele>
        <time>2017-05-28T08:09:22Z</time>
      </trkpt>
      <trkpt lat="49.21502" lon="0.02282">
        <ele>145</ele>
        <time>2017-05-28T08:09:27Z</time>
      </trkpt>
      <trkpt lat="49.21501" lon="0.02271">
        <ele>144.2</ele>
        <time>2017-05-28T08:09:33Z</time>
      </trkpt>
      <trkpt lat="49.21501" lon="0.02259">
        <ele>143.7</ele>
        <time>2017-05-28T08:09:39Z</time>
      </trkpt>
      <trkpt lat="49.21502" lon="0.02248">
        <ele>143.2</ele>
        <time>2017-05-28T08:09:45Z</time>
      </trkpt>
      <trkpt lat="49.21502" lon="0.02236">
        <ele>142.7</ele>
        <time>2017-05-28T08:09:51Z</time>
      </trkpt>
      <trkpt lat="49.21501" lon="0.02224">
        <ele>142.3</ele>
        <time>2017-05-28T08:09:57Z</time>
      </trkpt>
      <trkpt lat="49.21502" lon="0.02212">
        <ele>142.4</ele>
        <time>2017-05-28T08:10:04Z</time>
      </trkpt>
      <trkpt lat="49.21502" lon="0.022">
        <ele>142.6</ele>
        <time>2017-05-28T08:10:11Z</time>
      </trkpt>
      <trkpt lat="49.21503" lon="0.02188">
        <ele>142.5</ele>
        <time>2017-05-28T08:10:18Z</time>
      </trkpt>
      <trkpt lat="49.21505" lon="0.02177">
        <ele>142.4</ele>
        <time>2017-05-28T08:10:24Z</time>
      </trkpt>
      <trkpt lat="49.21502" lon="0.02164">
        <ele>142</ele>
        <time>2017-05-28T08:10:29Z</time>
      </trkpt>
      <trkpt lat="49.21506" lon="0.02153">
        <ele>142.2</ele>
        <time>2017-05-28T08:10:36Z</time>
      </trkpt>
      <trkpt lat="49.21511" lon="0.02144">
        <ele>143.9</ele>
        <time>2017-05-28T08:10:43Z</time>
      </trkpt>
      <trkpt lat="49.21517" lon="0.02138">
        <ele>144.6</ele>
        <time>2017-05-28T08:10:50Z</time>
      </trkpt>
      <trkpt lat="49.21524" lon="0.02134">
        <ele>145</ele>
        <time>2017-05-28T08:10:56Z</time>
      </trkpt>
      <trkpt lat="49.21532" lon="0.0213">
        <ele>144</ele>
        <time>2017-05-28T08:11:03Z</time>
      </trkpt>
      <trkpt lat="49.21539" lon="0.02126">
        <ele>142.5</ele>
        <time>2017-05-28T08:11:10Z</time>
      </trkpt>
      <trkpt lat="49.21546" lon="0.02122">
        <ele>142.1</ele>
        <time>2017-05-28T08:11:17Z</time>
      </trkpt>
      <trkpt lat="49.21547" lon="0.02121">
        <ele>141.4</ele>
        <time>2017-05-28T08:11:24Z</time>
      </trkpt>
      <trkpt lat="49.21555" lon="0.02118">
        <ele>141.2</ele>
        <time>2017-05-28T08:11:30Z</time>
      </trkpt>
      <trkpt lat="49.21562" lon="0.02115">
        <ele>141.2</ele>
        <time>2017-05-28T08:11:37Z</time>
      </trkpt>
      <trkpt lat="49.2157" lon="0.02113">
        <ele>141.4</ele>
        <time>2017-05-28T08:11:43Z</time>
      </trkpt>
      <trkpt lat="49.21578" lon="0.02111">
        <ele>141.6</ele>
        <time>2017-05-28T08:11:50Z</time>
      </trkpt>
      <trkpt lat="49.21585" lon="0.02113">
        <ele>142</ele>
        <time>2017-05-28T08:11:56Z</time>
      </trkpt>
      <trkpt lat="49.21592" lon="0.02112">
        <ele>141.9</ele>
        <time>2017-05-28T08:12:02Z</time>
      </trkpt>
      <trkpt lat="49.216" lon="0.02109">
        <ele>141.8</ele>
        <time>2017-05-28T08:12:08Z</time>
      </trkpt>
      <trkpt lat="49.21606" lon="0.02101">
        <ele>141.9</ele>
        <time>2017-05-28T08:12:15Z</time>
      </trkpt>
      <trkpt lat="49.21609" lon="0.0209">
        <ele>141.9</ele>
        <time>2017-05-28T08:12:22Z</time>
      </trkpt>
      <trkpt lat="49.21611" lon="0.02078">
        <ele>140.9</ele>
        <time>2017-05-28T08:12:29Z</time>
      </trkpt>
      <trkpt lat="49.21613" lon="0.02068">
        <ele>141</ele>
        <time>2017-05-28T08:12:35Z</time>
      </trkpt>
      <trkpt lat="49.21612" lon="0.02056">
        <ele>141.9</ele>
        <time>2017-05-28T08:12:42Z</time>
      </trkpt>
      <trkpt lat="49.2161" lon="0.02044">
        <ele>143.4</ele>
        <time>2017-05-28T08:12:48Z</time>
      </trkpt>
      <trkpt lat="49.21609" lon="0.02032">
        <ele>146.3</ele>
        <time>2017-05-28T08:12:54Z</time>
      </trkpt>
      <trkpt lat="49.21609" lon="0.0202">
        <ele>148.3</ele>
        <time>2017-05-28T08:13:01Z</time>
      </trkpt>
      <trkpt lat="49.21608" lon="0.02008">
        <ele>149.2</ele>
        <time>2017-05-28T08:13:08Z</time>
      </trkpt>
      <trkpt lat="49.21608" lon="0.01996">
        <ele>147.9</ele>
        <time>2017-05-28T08:13:14Z</time>
      </trkpt>
      <trkpt lat="49.21608" lon="0.01985">
        <ele>144.8</ele>
        <time>2017-05-28T08:13:19Z</time>
      </trkpt>
      <trkpt lat="49.21608" lon="0.01973">
        <ele>141.9</ele>
        <time>2017-05-28T08:13:25Z</time>
      </trkpt>
      <trkpt lat="49.21608" lon="0.01962">
        <ele>140.5</ele>
        <time>2017-05-28T08:13:31Z</time>
      </trkpt>
      <trkpt lat="49.21608" lon="0.01952">
        <ele>140.2</ele>
        <time>2017-05-28T08:13:38Z</time>
      </trkpt>
      <trkpt lat="49.21607" lon="0.01947">
        <ele>140.7</ele>
        <time>2017-05-28T08:13:45Z</time>
      </trkpt>
      <trkpt lat="49.21606" lon="0.01941">
        <ele>140.3</ele>
        <time>2017-05-28T08:13:52Z</time>
      </trkpt>
      <trkpt lat="49.21607" lon="0.01936">
        <ele>139.7</ele>
        <time>2017-05-28T08:13:59Z</time>
      </trkpt>
      <trkpt lat="49.21606" lon="0.01929">
        <ele>137.4</ele>
        <time>2017-05-28T08:14:06Z</time>
      </trkpt>
      <trkpt lat="49.21604" lon="0.0192">
        <ele>136.8</ele>
        <time>2017-05-28T08:14:13Z</time>
      </trkpt>
      <trkpt lat="49.21603" lon="0.01913">
        <ele>137.9</ele>
        <time>2017-05-28T08:14:20Z</time>
      </trkpt>
      <trkpt lat="49.21603" lon="0.01908">
        <ele>137.9</ele>
        <time>2017-05-28T08:14:27Z</time>
      </trkpt>
      <trkpt lat="49.21602" lon="0.01881">
        <ele>141.1</ele>
        <time>2017-05-28T08:15:24Z</time>
      </trkpt>
      <trkpt lat="49.21602" lon="0.01864">
        <ele>134.6</ele>
        <time>2017-05-28T08:15:49Z</time>
      </trkpt>
      <trkpt lat="49.21602" lon="0.01862">
        <ele>135.4</ele>
        <time>2017-05-28T08:15:56Z</time>
      </trkpt>
      <trkpt lat="49.21602" lon="0.0185">
        <ele>136.6</ele>
        <time>2017-05-28T08:16:20Z</time>
      </trkpt>
      <trkpt lat="49.21602" lon="0.01844">
        <ele>135.6</ele>
        <time>2017-05-28T08:16:27Z</time>
      </trkpt>
      <trkpt lat="49.21601" lon="0.01832">
        <ele>129.8</ele>
        <time>2017-05-28T08:16:37Z</time>
      </trkpt>
      <trkpt lat="49.21601" lon="0.0182">
        <ele>128.8</ele>
        <time>2017-05-28T08:16:43Z</time>
      </trkpt>
      <trkpt lat="49.216" lon="0.01809">
        <ele>130.3</ele>
        <time>2017-05-28T08:16:47Z</time>
      </trkpt>
      <trkpt lat="49.216" lon="0.01797">
        <ele>131.7</ele>
        <time>2017-05-28T08:16:52Z</time>
      </trkpt>
      <trkpt lat="49.21598" lon="0.01786">
        <ele>133.5</ele>
        <time>2017-05-28T08:16:58Z</time>
      </trkpt>
      <trkpt lat="49.21596" lon="0.01775">
        <ele>134.9</ele>
        <time>2017-05-28T08:17:03Z</time>
      </trkpt>
      <trkpt lat="49.21594" lon="0.01763">
        <ele>136.8</ele>
        <time>2017-05-28T08:17:08Z</time>
      </trkpt>
      <trkpt lat="49.21593" lon="0.0175">
        <ele>138.5</ele>
        <time>2017-05-28T08:17:14Z</time>
      </trkpt>
      <trkpt lat="49.21592" lon="0.01737">
        <ele>138.2</ele>
        <time>2017-05-28T08:17:21Z</time>
      </trkpt>
      <trkpt lat="49.2159" lon="0.01726">
        <ele>138.4</ele>
        <time>2017-05-28T08:17:28Z</time>
      </trkpt>
      <trkpt lat="49.21589" lon="0.0172">
        <ele>137.6</ele>
        <time>2017-05-28T08:17:35Z</time>
      </trkpt>
      <trkpt lat="49.21587" lon="0.01709">
        <ele>137.2</ele>
        <time>2017-05-28T08:17:42Z</time>
      </trkpt>
      <trkpt lat="49.21586" lon="0.01697">
        <ele>137</ele>
        <time>2017-05-28T08:17:48Z</time>
      </trkpt>
      <trkpt lat="49.21585" lon="0.01685">
        <ele>137.6</ele>
        <time>2017-05-28T08:17:54Z</time>
      </trkpt>
      <trkpt lat="49.21584" lon="0.01673">
        <ele>139.1</ele>
        <time>2017-05-28T08:18:01Z</time>
      </trkpt>
      <trkpt lat="49.21584" lon="0.01663">
        <ele>140.2</ele>
        <time>2017-05-28T08:18:08Z</time>
      </trkpt>
      <trkpt lat="49.21583" lon="0.01651">
        <ele>139.5</ele>
        <time>2017-05-28T08:18:15Z</time>
      </trkpt>
      <trkpt lat="49.21581" lon="0.01641">
        <ele>141</ele>
        <time>2017-05-28T08:18:20Z</time>
      </trkpt>
      <trkpt lat="49.21582" lon="0.01633">
        <ele>140.2</ele>
        <time>2017-05-28T08:18:27Z</time>
      </trkpt>
      <trkpt lat="49.21582" lon="0.01632">
        <ele>139.8</ele>
        <time>2017-05-28T08:18:34Z</time>
      </trkpt>
      <trkpt lat="49.21582" lon="0.01622">
        <ele>138.9</ele>
        <time>2017-05-28T08:18:41Z</time>
      </trkpt>
      <trkpt lat="49.21582" lon="0.01618">
        <ele>139.3</ele>
        <time>2017-05-28T08:18:48Z</time>
      </trkpt>
      <trkpt lat="49.21581" lon="0.01604">
        <ele>142.7</ele>
        <time>2017-05-28T08:18:51Z</time>
      </trkpt>
      <trkpt lat="49.21582" lon="0.01601">
        <ele>143.3</ele>
        <time>2017-05-28T08:18:58Z</time>
      </trkpt>
      <trkpt lat="49.21586" lon="0.01598">
        <ele>142.2</ele>
        <time>2017-05-28T08:19:16Z</time>
      </trkpt>
      <trkpt lat="49.21588" lon="0.01595">
        <ele>139.4</ele>
        <time>2017-05-28T08:19:23Z</time>
      </trkpt>
      <trkpt lat="49.21595" lon="0.01587">
        <ele>133.4</ele>
        <time>2017-05-28T08:19:37Z</time>
      </trkpt>
      <trkpt lat="49.21601" lon="0.01586">
        <ele>136.1</ele>
        <time>2017-05-28T08:19:44Z</time>
      </trkpt>
      <trkpt lat="49.21606" lon="0.01586">
        <ele>136.3</ele>
        <time>2017-05-28T08:19:51Z</time>
      </trkpt>
      <trkpt lat="49.21615" lon="0.01584">
        <ele>128.1</ele>
        <time>2017-05-28T08:20:11Z</time>
      </trkpt>
      <trkpt lat="49.21632" lon="0.01581">
        <ele>132</ele>
        <time>2017-05-28T08:21:12Z</time>
      </trkpt>
      <trkpt lat="49.21637" lon="0.01581">
        <ele>130.5</ele>
        <time>2017-05-28T08:21:19Z</time>
      </trkpt>
      <trkpt lat="49.2164" lon="0.0158">
        <ele>125.9</ele>
        <time>2017-05-28T08:21:26Z</time>
      </trkpt>
      <trkpt lat="49.21647" lon="0.01578">
        <ele>126.9</ele>
        <time>2017-05-28T08:21:33Z</time>
      </trkpt>
      <trkpt lat="49.21652" lon="0.01578">
        <ele>127.5</ele>
        <time>2017-05-28T08:21:40Z</time>
      </trkpt>
      <trkpt lat="49.21657" lon="0.01576">
        <ele>124.4</ele>
        <time>2017-05-28T08:21:47Z</time>
      </trkpt>
      <trkpt lat="49.21665" lon="0.01575">
        <ele>129.7</ele>
        <time>2017-05-28T08:21:52Z</time>
      </trkpt>
      <trkpt lat="49.21673" lon="0.01576">
        <ele>134.6</ele>
        <time>2017-05-28T08:21:57Z</time>
      </trkpt>
      <trkpt lat="49.21681" lon="0.01577">
        <ele>140.8</ele>
        <time>2017-05-28T08:22:02Z</time>
      </trkpt>
      <trkpt lat="49.21685" lon="0.01578">
        <ele>139.2</ele>
        <time>2017-05-28T08:22:09Z</time>
      </trkpt>
      <trkpt lat="49.21689" lon="0.01577">
        <ele>141</ele>
        <time>2017-05-28T08:22:16Z</time>
      </trkpt>
      <trkpt lat="49.21695" lon="0.01578">
        <ele>142.4</ele>
        <time>2017-05-28T08:22:23Z</time>
      </trkpt>
      <trkpt lat="49.21703" lon="0.01575">
        <ele>140.6</ele>
        <time>2017-05-28T08:22:30Z</time>
      </trkpt>
      <trkpt lat="49.21711" lon="0.01575">
        <ele>142.5</ele>
        <time>2017-05-28T08:22:35Z</time>
      </trkpt>
      <trkpt lat="49.21715" lon="0.01576">
        <ele>141.6</ele>
        <time>2017-05-28T08:22:42Z</time>
      </trkpt>
      <trkpt lat="49.21722" lon="0.01575">
        <ele>143</ele>
        <time>2017-05-28T08:22:49Z</time>
      </trkpt>
      <trkpt lat="49.21724" lon="0.01576">
        <ele>139.3</ele>
        <time>2017-05-28T08:22:56Z</time>
      </trkpt>
      <trkpt lat="49.2173" lon="0.01572">
        <ele>128.5</ele>
        <time>2017-05-28T08:23:14Z</time>
      </trkpt>
      <trkpt lat="49.21736" lon="0.01575">
        <ele>130.1</ele>
        <time>2017-05-28T08:23:21Z</time>
      </trkpt>
      <trkpt lat="49.21744" lon="0.01574">
        <ele>130.3</ele>
        <time>2017-05-28T08:23:28Z</time>
      </trkpt>
      <trkpt lat="49.21752" lon="0.01572">
        <ele>131.9</ele>
        <time>2017-05-28T08:23:33Z</time>
      </trkpt>
      <trkpt lat="49.21756" lon="0.01573">
        <ele>132.2</ele>
        <time>2017-05-28T08:23:40Z</time>
      </trkpt>
      <trkpt lat="49.21765" lon="0.01578">
        <ele>135.4</ele>
        <time>2017-05-28T08:23:48Z</time>
      </trkpt>
      <trkpt lat="49.21773" lon="0.01578">
        <ele>131.6</ele>
        <time>2017-05-28T08:24:03Z</time>
      </trkpt>
      <trkpt lat="49.21781" lon="0.01574">
        <ele>128.3</ele>
        <time>2017-05-28T08:24:10Z</time>
      </trkpt>
      <trkpt lat="49.21788" lon="0.0157">
        <ele>130.2</ele>
        <time>2017-05-28T08:24:16Z</time>
      </trkpt>
      <trkpt lat="49.21796" lon="0.0157">
        <ele>131.5</ele>
        <time>2017-05-28T08:24:21Z</time>
      </trkpt>
      <trkpt lat="49.21805" lon="0.0157">
        <ele>138.7</ele>
        <time>2017-05-28T08:24:26Z</time>
      </trkpt>
      <trkpt lat="49.21813" lon="0.01568">
        <ele>142.7</ele>
        <time>2017-05-28T08:24:30Z</time>
      </trkpt>
      <trkpt lat="49.2182" lon="0.01566">
        <ele>143.3</ele>
        <time>2017-05-28T08:24:37Z</time>
      </trkpt>
      <trkpt lat="49.21827" lon="0.01565">
        <ele>140.4</ele>
        <time>2017-05-28T08:24:44Z</time>
      </trkpt>
      <trkpt lat="49.21834" lon="0.01565">
        <ele>137.4</ele>
        <time>2017-05-28T08:24:51Z</time>
      </trkpt>
      <trkpt lat="49.21842" lon="0.01556">
        <ele>130.5</ele>
        <time>2017-05-28T08:25:13Z</time>
      </trkpt>
      <trkpt lat="49.2185" lon="0.01558">
        <ele>137.4</ele>
        <time>2017-05-28T08:25:20Z</time>
      </trkpt>
      <trkpt lat="49.21851" lon="0.01559">
        <ele>137.1</ele>
        <time>2017-05-28T08:25:27Z</time>
      </trkpt>
      <trkpt lat="49.2186" lon="0.01556">
        <ele>135.9</ele>
        <time>2017-05-28T08:25:41Z</time>
      </trkpt>
      <trkpt lat="49.21861" lon="0.01551">
        <ele>138.1</ele>
        <time>2017-05-28T08:25:57Z</time>
      </trkpt>
      <trkpt lat="49.21864" lon="0.01538">
        <ele>135.3</ele>
        <time>2017-05-28T08:27:01Z</time>
      </trkpt>
      <trkpt lat="49.2187" lon="0.01528">
        <ele>135</ele>
        <time>2017-05-28T08:27:18Z</time>
      </trkpt>
      <trkpt lat="49.21871" lon="0.01526">
        <ele>133.8</ele>
        <time>2017-05-28T08:27:25Z</time>
      </trkpt>
      <trkpt lat="49.21871" lon="0.01514">
        <ele>133.8</ele>
        <time>2017-05-28T08:27:49Z</time>
      </trkpt>
      <trkpt lat="49.2187" lon="0.01509">
        <ele>136.2</ele>
        <time>2017-05-28T08:27:56Z</time>
      </trkpt>
      <trkpt lat="49.2187" lon="0.01492">
        <ele>137.6</ele>
        <time>2017-05-28T08:28:39Z</time>
      </trkpt>
      <trkpt lat="49.2187" lon="0.01474">
        <ele>135.5</ele>
        <time>2017-05-28T08:28:37Z</time>
      </trkpt>
      <trkpt lat="49.21868" lon="0.0146">
        <ele>127.6</ele>
        <time>2017-05-28T08:31:05Z</time>
      </trkpt>
      <trkpt lat="49.21866" lon="0.01449">
        <ele>129</ele>
        <time>2017-05-28T08:31:14Z</time>
      </trkpt>
      <trkpt lat="49.21868" lon="0.01443">
        <ele>130.5</ele>
        <time>2017-05-28T08:31:21Z</time>
      </trkpt>
      <trkpt lat="49.21868" lon="0.01437">
        <ele>130.6</ele>
        <time>2017-05-28T08:31:28Z</time>
      </trkpt>
      <trkpt lat="49.21869" lon="0.01419">
        <ele>130.5</ele>
        <time>2017-05-28T08:32:28Z</time>
      </trkpt>
      <trkpt lat="49.2187" lon="0.01412">
        <ele>131.4</ele>
        <time>2017-05-28T08:32:35Z</time>
      </trkpt>
      <trkpt lat="49.21871" lon="0.01401">
        <ele>125.9</ele>
        <time>2017-05-28T08:32:48Z</time>
      </trkpt>
      <trkpt lat="49.21871" lon="0.014">
        <ele>125.4</ele>
        <time>2017-05-28T08:32:55Z</time>
      </trkpt>
      <trkpt lat="49.21872" lon="0.01394">
        <ele>125.1</ele>
        <time>2017-05-28T08:33:06Z</time>
      </trkpt>
      <trkpt lat="49.21865" lon="0.01356">
        <ele>135.6</ele>
        <time>2017-05-28T08:36:00Z</time>
      </trkpt>
      <trkpt lat="49.21861" lon="0.01348">
        <ele>135.7</ele>
        <time>2017-05-28T08:36:07Z</time>
      </trkpt>
      <trkpt lat="49.2186" lon="0.01339">
        <ele>136.4</ele>
        <time>2017-05-28T08:36:14Z</time>
      </trkpt>
      <trkpt lat="49.21861" lon="0.01332">
        <ele>138.5</ele>
        <time>2017-05-28T08:36:21Z</time>
      </trkpt>
      <trkpt lat="49.2186" lon="0.01324">
        <ele>142.4</ele>
        <time>2017-05-28T08:36:28Z</time>
      </trkpt>
      <trkpt lat="49.2186" lon="0.01314">
        <ele>142.7</ele>
        <time>2017-05-28T08:36:35Z</time>
      </trkpt>
      <trkpt lat="49.21863" lon="0.01302">
        <ele>141.9</ele>
        <time>2017-05-28T08:36:42Z</time>
      </trkpt>
      <trkpt lat="49.21865" lon="0.01292">
        <ele>140</ele>
        <time>2017-05-28T08:36:49Z</time>
      </trkpt>
      <trkpt lat="49.21867" lon="0.01284">
        <ele>139.1</ele>
        <time>2017-05-28T08:36:56Z</time>
      </trkpt>
      <trkpt lat="49.21868" lon="0.01278">
        <ele>136.5</ele>
        <time>2017-05-28T08:37:03Z</time>
      </trkpt>
      <trkpt lat="49.21869" lon="0.01272">
        <ele>134.9</ele>
        <time>2017-05-28T08:37:10Z</time>
      </trkpt>
      <trkpt lat="49.21871" lon="0.01268">
        <ele>133.3</ele>
        <time>2017-05-28T08:37:17Z</time>
      </trkpt>
      <trkpt lat="49.21877" lon="0.01261">
        <ele>131.7</ele>
        <time>2017-05-28T08:37:42Z</time>
      </trkpt>
      <trkpt lat="49.21879" lon="0.01254">
        <ele>132.2</ele>
        <time>2017-05-28T08:37:49Z</time>
      </trkpt>
      <trkpt lat="49.21882" lon="0.01247">
        <ele>131.9</ele>
        <time>2017-05-28T08:37:56Z</time>
      </trkpt>
      <trkpt lat="49.21885" lon="0.01238">
        <ele>129.6</ele>
        <time>2017-05-28T08:38:03Z</time>
      </trkpt>
      <trkpt lat="49.21888" lon="0.0123">
        <ele>128.8</ele>
        <time>2017-05-28T08:38:10Z</time>
      </trkpt>
      <trkpt lat="49.2189" lon="0.01221">
        <ele>128.8</ele>
        <time>2017-05-28T08:38:17Z</time>
      </trkpt>
      <trkpt lat="49.21893" lon="0.0121">
        <ele>128.4</ele>
        <time>2017-05-28T08:38:24Z</time>
      </trkpt>
      <trkpt lat="49.21895" lon="0.01198">
        <ele>127.6</ele>
        <time>2017-05-28T08:38:31Z</time>
      </trkpt>
      <trkpt lat="49.21898" lon="0.01187">
        <ele>127.7</ele>
        <time>2017-05-28T08:38:38Z</time>
      </trkpt>
      <trkpt lat="49.219" lon="0.01177">
        <ele>126.4</ele>
        <time>2017-05-28T08:38:45Z</time>
      </trkpt>
      <trkpt lat="49.21906" lon="0.01169">
        <ele>127.7</ele>
        <time>2017-05-28T08:38:52Z</time>
      </trkpt>
      <trkpt lat="49.21909" lon="0.01159">
        <ele>127.3</ele>
        <time>2017-05-28T08:38:59Z</time>
      </trkpt>
      <trkpt lat="49.21913" lon="0.0115">
        <ele>128</ele>
        <time>2017-05-28T08:39:06Z</time>
      </trkpt>
      <trkpt lat="49.21916" lon="0.01142">
        <ele>129</ele>
        <time>2017-05-28T08:39:13Z</time>
      </trkpt>
      <trkpt lat="49.2192" lon="0.01133">
        <ele>129.5</ele>
        <time>2017-05-28T08:39:20Z</time>
      </trkpt>
      <trkpt lat="49.21921" lon="0.01122">
        <ele>128.6</ele>
        <time>2017-05-28T08:39:27Z</time>
      </trkpt>
      <trkpt lat="49.21924" lon="0.01111">
        <ele>128.4</ele>
        <time>2017-05-28T08:39:34Z</time>
      </trkpt>
      <trkpt lat="49.21927" lon="0.01101">
        <ele>128.3</ele>
        <time>2017-05-28T08:39:41Z</time>
      </trkpt>
      <trkpt lat="49.2193" lon="0.01091">
        <ele>128.3</ele>
        <time>2017-05-28T08:39:47Z</time>
      </trkpt>
      <trkpt lat="49.21932" lon="0.01081">
        <ele>128.6</ele>
        <time>2017-05-28T08:39:54Z</time>
      </trkpt>
      <trkpt lat="49.21934" lon="0.01073">
        <ele>129</ele>
        <time>2017-05-28T08:40:01Z</time>
      </trkpt>
      <trkpt lat="49.21935" lon="0.01064">
        <ele>129.6</ele>
        <time>2017-05-28T08:40:08Z</time>
      </trkpt>
      <trkpt lat="49.21937" lon="0.01057">
        <ele>129.1</ele>
        <time>2017-05-28T08:40:15Z</time>
      </trkpt>
      <trkpt lat="49.21939" lon="0.01047">
        <ele>129.9</ele>
        <time>2017-05-28T08:40:22Z</time>
      </trkpt>
      <trkpt lat="49.21941" lon="0.01036">
        <ele>129.6</ele>
        <time>2017-05-28T08:40:29Z</time>
      </trkpt>
      <trkpt lat="49.21943" lon="0.01024">
        <ele>128.6</ele>
        <time>2017-05-28T08:40:36Z</time>
      </trkpt>
      <trkpt lat="49.21945" lon="0.01014">
        <ele>129.5</ele>
        <time>2017-05-28T08:40:43Z</time>
      </trkpt>
      <trkpt lat="49.21948" lon="0.01006">
        <ele>131.6</ele>
        <time>2017-05-28T08:40:50Z</time>
      </trkpt>
      <trkpt lat="49.21951" lon="0.00997">
        <ele>131.2</ele>
        <time>2017-05-28T08:40:57Z</time>
      </trkpt>
      <trkpt lat="49.21953" lon="0.00986">
        <ele>132</ele>
        <time>2017-05-28T08:41:04Z</time>
      </trkpt>
      <trkpt lat="49.21955" lon="0.00978">
        <ele>133</ele>
        <time>2017-05-28T08:41:11Z</time>
      </trkpt>
      <trkpt lat="49.21955" lon="0.00968">
        <ele>133.8</ele>
        <time>2017-05-28T08:41:18Z</time>
      </trkpt>
      <trkpt lat="49.21956" lon="0.00958">
        <ele>133.4</ele>
        <time>2017-05-28T08:41:25Z</time>
      </trkpt>
      <trkpt lat="49.21958" lon="0.00948">
        <ele>133.8</ele>
        <time>2017-05-28T08:41:32Z</time>
      </trkpt>
      <trkpt lat="49.21959" lon="0.00937">
        <ele>134.6</ele>
        <time>2017-05-28T08:41:39Z</time>
      </trkpt>
      <trkpt lat="49.21959" lon="0.00926">
        <ele>133.2</ele>
        <time>2017-05-28T08:41:46Z</time>
      </trkpt>
      <trkpt lat="49.21961" lon="0.00914">
        <ele>130.9</ele>
        <time>2017-05-28T08:41:53Z</time>
      </trkpt>
      <trkpt lat="49.21962" lon="0.00902">
        <ele>128.4</ele>
        <time>2017-05-28T08:41:59Z</time>
      </trkpt>
      <trkpt lat="49.21965" lon="0.00891">
        <ele>126.6</ele>
        <time>2017-05-28T08:42:05Z</time>
      </trkpt>
      <trkpt lat="49.21966" lon="0.00879">
        <ele>125.6</ele>
        <time>2017-05-28T08:42:11Z</time>
      </trkpt>
      <trkpt lat="49.21969" lon="0.00868">
        <ele>125.3</ele>
        <time>2017-05-28T08:42:17Z</time>
      </trkpt>
      <trkpt lat="49.21972" lon="0.00858">
        <ele>126.2</ele>
        <time>2017-05-28T08:42:22Z</time>
      </trkpt>
      <trkpt lat="49.21973" lon="0.00847">
        <ele>124.6</ele>
        <time>2017-05-28T08:42:28Z</time>
      </trkpt>
      <trkpt lat="49.21972" lon="0.00835">
        <ele>122.8</ele>
        <time>2017-05-28T08:42:35Z</time>
      </trkpt>
      <trkpt lat="49.21974" lon="0.00822">
        <ele>121.4</ele>
        <time>2017-05-28T08:42:41Z</time>
      </trkpt>
      <trkpt lat="49.21974" lon="0.00811">
        <ele>120.6</ele>
        <time>2017-05-28T08:42:47Z</time>
      </trkpt>
      <trkpt lat="49.21977" lon="0.008">
        <ele>119.4</ele>
        <time>2017-05-28T08:42:53Z</time>
      </trkpt>
      <trkpt lat="49.21981" lon="0.00789">
        <ele>119.6</ele>
        <time>2017-05-28T08:42:59Z</time>
      </trkpt>
      <trkpt lat="49.21983" lon="0.00779">
        <ele>118.9</ele>
        <time>2017-05-28T08:43:05Z</time>
      </trkpt>
      <trkpt lat="49.21985" lon="0.00769">
        <ele>120</ele>
        <time>2017-05-28T08:43:12Z</time>
      </trkpt>
      <trkpt lat="49.21987" lon="0.00758">
        <ele>120.5</ele>
        <time>2017-05-28T08:43:19Z</time>
      </trkpt>
      <trkpt lat="49.21992" lon="0.0075">
        <ele>120.3</ele>
        <time>2017-05-28T08:43:26Z</time>
      </trkpt>
      <trkpt lat="49.22" lon="0.00749">
        <ele>122.2</ele>
        <time>2017-05-28T08:43:32Z</time>
      </trkpt>
      <trkpt lat="49.22007" lon="0.0075">
        <ele>123.3</ele>
        <time>2017-05-28T08:43:39Z</time>
      </trkpt>
      <trkpt lat="49.22014" lon="0.00758">
        <ele>125.3</ele>
        <time>2017-05-28T08:43:46Z</time>
      </trkpt>
      <trkpt lat="49.22021" lon="0.00763">
        <ele>127.4</ele>
        <time>2017-05-28T08:43:52Z</time>
      </trkpt>
      <trkpt lat="49.22026" lon="0.00765">
        <ele>127.4</ele>
        <time>2017-05-28T08:43:59Z</time>
      </trkpt>
      <trkpt lat="49.22034" lon="0.00767">
        <ele>130</ele>
        <time>2017-05-28T08:44:06Z</time>
      </trkpt>
      <trkpt lat="49.22041" lon="0.00768">
        <ele>130.9</ele>
        <time>2017-05-28T08:44:13Z</time>
      </trkpt>
      <trkpt lat="49.22048" lon="0.0077">
        <ele>130.4</ele>
        <time>2017-05-28T08:44:20Z</time>
      </trkpt>
      <trkpt lat="49.22056" lon="0.00774">
        <ele>129.6</ele>
        <time>2017-05-28T08:44:27Z</time>
      </trkpt>
      <trkpt lat="49.22063" lon="0.00777">
        <ele>128.2</ele>
        <time>2017-05-28T08:44:34Z</time>
      </trkpt>
      <trkpt lat="49.22071" lon="0.0078">
        <ele>127.2</ele>
        <time>2017-05-28T08:44:41Z</time>
      </trkpt>
      <trkpt lat="49.22077" lon="0.00787">
        <ele>127.9</ele>
        <time>2017-05-28T08:44:48Z</time>
      </trkpt>
      <trkpt lat="49.22083" lon="0.00794">
        <ele>129</ele>
        <time>2017-05-28T08:44:55Z</time>
      </trkpt>
      <trkpt lat="49.22089" lon="0.00797">
        <ele>127.3</ele>
        <time>2017-05-28T08:45:02Z</time>
      </trkpt>
      <trkpt lat="49.22096" lon="0.008">
        <ele>127.1</ele>
        <time>2017-05-28T08:45:09Z</time>
      </trkpt>
      <trkpt lat="49.22102" lon="0.00802">
        <ele>128.4</ele>
        <time>2017-05-28T08:45:16Z</time>
      </trkpt>
      <trkpt lat="49.22109" lon="0.00805">
        <ele>129.1</ele>
        <time>2017-05-28T08:45:22Z</time>
      </trkpt>
      <trkpt lat="49.22117" lon="0.00807">
        <ele>130.5</ele>
        <time>2017-05-28T08:45:29Z</time>
      </trkpt>
      <trkpt lat="49.22124" lon="0.0081">
        <ele>130.9</ele>
        <time>2017-05-28T08:45:36Z</time>
      </trkpt>
      <trkpt lat="49.2213" lon="0.00815">
        <ele>130.4</ele>
        <time>2017-05-28T08:45:43Z</time>
      </trkpt>
      <trkpt lat="49.22137" lon="0.00819">
        <ele>129.3</ele>
        <time>2017-05-28T08:45:50Z</time>
      </trkpt>
      <trkpt lat="49.22143" lon="0.00822">
        <ele>127.7</ele>
        <time>2017-05-28T08:45:57Z</time>
      </trkpt>
      <trkpt lat="49.2215" lon="0.00826">
        <ele>124.3</ele>
        <time>2017-05-28T08:46:03Z</time>
      </trkpt>
      <trkpt lat="49.22157" lon="0.0083">
        <ele>123.6</ele>
        <time>2017-05-28T08:46:10Z</time>
      </trkpt>
      <trkpt lat="49.22165" lon="0.00834">
        <ele>124.3</ele>
        <time>2017-05-28T08:46:16Z</time>
      </trkpt>
      <trkpt lat="49.22172" lon="0.00837">
        <ele>125</ele>
        <time>2017-05-28T08:46:22Z</time>
      </trkpt>
      <trkpt lat="49.2218" lon="0.00841">
        <ele>127</ele>
        <time>2017-05-28T08:46:29Z</time>
      </trkpt>
      <trkpt lat="49.22188" lon="0.00844">
        <ele>127.3</ele>
        <time>2017-05-28T08:46:36Z</time>
      </trkpt>
      <trkpt lat="49.22195" lon="0.00848">
        <ele>125.9</ele>
        <time>2017-05-28T08:46:43Z</time>
      </trkpt>
      <trkpt lat="49.22202" lon="0.00849">
        <ele>126.6</ele>
        <time>2017-05-28T08:46:50Z</time>
      </trkpt>
      <trkpt lat="49.22207" lon="0.00851">
        <ele>125.5</ele>
        <time>2017-05-28T08:46:57Z</time>
      </trkpt>
      <trkpt lat="49.22211" lon="0.00849">
        <ele>127.7</ele>
        <time>2017-05-28T08:47:04Z</time>
      </trkpt>
      <trkpt lat="49.22214" lon="0.00845">
        <ele>124.9</ele>
        <time>2017-05-28T08:47:11Z</time>
      </trkpt>
      <trkpt lat="49.2222" lon="0.00839">
        <ele>125.2</ele>
        <time>2017-05-28T08:47:18Z</time>
      </trkpt>
      <trkpt lat="49.22225" lon="0.0083">
        <ele>126.2</ele>
        <time>2017-05-28T08:47:24Z</time>
      </trkpt>
      <trkpt lat="49.22229" lon="0.0082">
        <ele>125.2</ele>
        <time>2017-05-28T08:47:30Z</time>
      </trkpt>
      <trkpt lat="49.22235" lon="0.00811">
        <ele>121.8</ele>
        <time>2017-05-28T08:47:36Z</time>
      </trkpt>
      <trkpt lat="49.2224" lon="0.00802">
        <ele>117.8</ele>
        <time>2017-05-28T08:47:43Z</time>
      </trkpt>
      <trkpt lat="49.22248" lon="0.00797">
        <ele>118.8</ele>
        <time>2017-05-28T08:47:50Z</time>
      </trkpt>
      <trkpt lat="49.22256" lon="0.00796">
        <ele>118.9</ele>
        <time>2017-05-28T08:47:57Z</time>
      </trkpt>
      <trkpt lat="49.22264" lon="0.00798">
        <ele>118.9</ele>
        <time>2017-05-28T08:48:03Z</time>
      </trkpt>
      <trkpt lat="49.2227" lon="0.00802">
        <ele>119.4</ele>
        <time>2017-05-28T08:48:10Z</time>
      </trkpt>
      <trkpt lat="49.22278" lon="0.00806">
        <ele>121</ele>
        <time>2017-05-28T08:48:17Z</time>
      </trkpt>
      <trkpt lat="49.22282" lon="0.00807">
        <ele>119</ele>
        <time>2017-05-28T08:48:24Z</time>
      </trkpt>
      <trkpt lat="49.22287" lon="0.00802">
        <ele>118.1</ele>
        <time>2017-05-28T08:48:31Z</time>
      </trkpt>
      <trkpt lat="49.22293" lon="0.00796">
        <ele>117.7</ele>
        <time>2017-05-28T08:48:38Z</time>
      </trkpt>
      <trkpt lat="49.22298" lon="0.00789">
        <ele>118.2</ele>
        <time>2017-05-28T08:48:44Z</time>
      </trkpt>
      <trkpt lat="49.22303" lon="0.00782">
        <ele>118.1</ele>
        <time>2017-05-28T08:48:51Z</time>
      </trkpt>
      <trkpt lat="49.22307" lon="0.00774">
        <ele>116.3</ele>
        <time>2017-05-28T08:48:58Z</time>
      </trkpt>
      <trkpt lat="49.22312" lon="0.00767">
        <ele>116.3</ele>
        <time>2017-05-28T08:49:05Z</time>
      </trkpt>
      <trkpt lat="49.2232" lon="0.0076">
        <ele>116.6</ele>
        <time>2017-05-28T08:49:12Z</time>
      </trkpt>
      <trkpt lat="49.22325" lon="0.00753">
        <ele>117.3</ele>
        <time>2017-05-28T08:49:18Z</time>
      </trkpt>
      <trkpt lat="49.22331" lon="0.00745">
        <ele>116.7</ele>
        <time>2017-05-28T08:49:25Z</time>
      </trkpt>
      <trkpt lat="49.22338" lon="0.00737">
        <ele>117.4</ele>
        <time>2017-05-28T08:49:31Z</time>
      </trkpt>
      <trkpt lat="49.22343" lon="0.0073">
        <ele>115.9</ele>
        <time>2017-05-28T08:49:38Z</time>
      </trkpt>
      <trkpt lat="49.22347" lon="0.00723">
        <ele>115.8</ele>
        <time>2017-05-28T08:49:45Z</time>
      </trkpt>
      <trkpt lat="49.22351" lon="0.00715">
        <ele>115</ele>
        <time>2017-05-28T08:49:52Z</time>
      </trkpt>
      <trkpt lat="49.22355" lon="0.00708">
        <ele>114</ele>
        <time>2017-05-28T08:49:59Z</time>
      </trkpt>
      <trkpt lat="49.22361" lon="0.00699">
        <ele>114.4</ele>
        <time>2017-05-28T08:50:06Z</time>
      </trkpt>
      <trkpt lat="49.22365" lon="0.00695">
        <ele>115</ele>
        <time>2017-05-28T08:50:13Z</time>
      </trkpt>
      <trkpt lat="49.22366" lon="0.00695">
        <ele>114.5</ele>
        <time>2017-05-28T08:50:20Z</time>
      </trkpt>
      <trkpt lat="49.22372" lon="0.00697">
        <ele>113</ele>
        <time>2017-05-28T08:50:32Z</time>
      </trkpt>
      <trkpt lat="49.22383" lon="0.00675">
        <ele>111.7</ele>
        <time>2017-05-28T08:51:14Z</time>
      </trkpt>
      <trkpt lat="49.22388" lon="0.00668">
        <ele>112</ele>
        <time>2017-05-28T08:51:21Z</time>
      </trkpt>
      <trkpt lat="49.22389" lon="0.00666">
        <ele>113</ele>
        <time>2017-05-28T08:51:28Z</time>
      </trkpt>
      <trkpt lat="49.22394" lon="0.00658">
        <ele>114.4</ele>
        <time>2017-05-28T08:51:35Z</time>
      </trkpt>
      <trkpt lat="49.22398" lon="0.0065">
        <ele>114.7</ele>
        <time>2017-05-28T08:51:42Z</time>
      </trkpt>
      <trkpt lat="49.224" lon="0.00638">
        <ele>113.8</ele>
        <time>2017-05-28T08:51:49Z</time>
      </trkpt>
      <trkpt lat="49.22399" lon="0.00627">
        <ele>110.9</ele>
        <time>2017-05-28T08:51:56Z</time>
      </trkpt>
      <trkpt lat="49.22398" lon="0.00616">
        <ele>109.5</ele>
        <time>2017-05-28T08:52:03Z</time>
      </trkpt>
      <trkpt lat="49.224" lon="0.00606">
        <ele>109.4</ele>
        <time>2017-05-28T08:52:10Z</time>
      </trkpt>
      <trkpt lat="49.22401" lon="0.00596">
        <ele>109.7</ele>
        <time>2017-05-28T08:52:17Z</time>
      </trkpt>
      <trkpt lat="49.22404" lon="0.00586">
        <ele>111.1</ele>
        <time>2017-05-28T08:52:24Z</time>
      </trkpt>
      <trkpt lat="49.22409" lon="0.00576">
        <ele>112.4</ele>
        <time>2017-05-28T08:52:30Z</time>
      </trkpt>
      <trkpt lat="49.22413" lon="0.00566">
        <ele>113.9</ele>
        <time>2017-05-28T08:52:36Z</time>
      </trkpt>
      <trkpt lat="49.22416" lon="0.00556">
        <ele>115.9</ele>
        <time>2017-05-28T08:52:43Z</time>
      </trkpt>
      <trkpt lat="49.2242" lon="0.00546">
        <ele>116.8</ele>
        <time>2017-05-28T08:52:49Z</time>
      </trkpt>
      <trkpt lat="49.22425" lon="0.00535">
        <ele>116.8</ele>
        <time>2017-05-28T08:52:55Z</time>
      </trkpt>
      <trkpt lat="49.22429" lon="0.00526">
        <ele>116.7</ele>
        <time>2017-05-28T08:53:02Z</time>
      </trkpt>
      <trkpt lat="49.22434" lon="0.00516">
        <ele>116.9</ele>
        <time>2017-05-28T08:53:08Z</time>
      </trkpt>
      <trkpt lat="49.22436" lon="0.00504">
        <ele>117.3</ele>
        <time>2017-05-28T08:53:14Z</time>
      </trkpt>
      <trkpt lat="49.22439" lon="0.00494">
        <ele>116.9</ele>
        <time>2017-05-28T08:53:21Z</time>
      </trkpt>
      <trkpt lat="49.22442" lon="0.00484">
        <ele>115.4</ele>
        <time>2017-05-28T08:53:28Z</time>
      </trkpt>
      <trkpt lat="49.22446" lon="0.00475">
        <ele>113</ele>
        <time>2017-05-28T08:53:35Z</time>
      </trkpt>
      <trkpt lat="49.22449" lon="0.00463">
        <ele>113</ele>
        <time>2017-05-28T08:53:42Z</time>
      </trkpt>
      <trkpt lat="49.22453" lon="0.00453">
        <ele>111.8</ele>
        <time>2017-05-28T08:53:49Z</time>
      </trkpt>
      <trkpt lat="49.22456" lon="0.00443">
        <ele>109.9</ele>
        <time>2017-05-28T08:53:56Z</time>
      </trkpt>
      <trkpt lat="49.22458" lon="0.00432">
        <ele>107.8</ele>
        <time>2017-05-28T08:54:03Z</time>
      </trkpt>
      <trkpt lat="49.2246" lon="0.00423">
        <ele>107.6</ele>
        <time>2017-05-28T08:54:10Z</time>
      </trkpt>
      <trkpt lat="49.22462" lon="0.00418">
        <ele>109.1</ele>
        <time>2017-05-28T08:54:17Z</time>
      </trkpt>
      <trkpt lat="49.22464" lon="0.0041">
        <ele>110.6</ele>
        <time>2017-05-28T08:54:24Z</time>
      </trkpt>
      <trkpt lat="49.22466" lon="0.00405">
        <ele>111.1</ele>
        <time>2017-05-28T08:54:31Z</time>
      </trkpt>
      <trkpt lat="49.22468" lon="0.00404">
        <ele>111.6</ele>
        <time>2017-05-28T08:54:38Z</time>
      </trkpt>
      <trkpt lat="49.22469" lon="0.00399">
        <ele>110</ele>
        <time>2017-05-28T08:54:45Z</time>
      </trkpt>
      <trkpt lat="49.22467" lon="0.00396">
        <ele>111.2</ele>
        <time>2017-05-28T08:54:52Z</time>
      </trkpt>
      <trkpt lat="49.22464" lon="0.00387">
        <ele>111.7</ele>
        <time>2017-05-28T08:55:05Z</time>
      </trkpt>
      <trkpt lat="49.2246" lon="0.0038">
        <ele>110.4</ele>
        <time>2017-05-28T08:55:12Z</time>
      </trkpt>
      <trkpt lat="49.22456" lon="0.00371">
        <ele>110.1</ele>
        <time>2017-05-28T08:55:19Z</time>
      </trkpt>
      <trkpt lat="49.22451" lon="0.00363">
        <ele>110.3</ele>
        <time>2017-05-28T08:55:26Z</time>
      </trkpt>
      <trkpt lat="49.22447" lon="0.00356">
        <ele>108.8</ele>
        <time>2017-05-28T08:55:33Z</time>
      </trkpt>
      <trkpt lat="49.22443" lon="0.00347">
        <ele>107.3</ele>
        <time>2017-05-28T08:55:40Z</time>
      </trkpt>
      <trkpt lat="49.22439" lon="0.00339">
        <ele>105</ele>
        <time>2017-05-28T08:55:47Z</time>
      </trkpt>
      <trkpt lat="49.22433" lon="0.00332">
        <ele>102</ele>
        <time>2017-05-28T08:55:54Z</time>
      </trkpt>
      <trkpt lat="49.22429" lon="0.00325">
        <ele>101.2</ele>
        <time>2017-05-28T08:56:01Z</time>
      </trkpt>
      <trkpt lat="49.22426" lon="0.00319">
        <ele>100.7</ele>
        <time>2017-05-28T08:56:08Z</time>
      </trkpt>
      <trkpt lat="49.22422" lon="0.00312">
        <ele>99</ele>
        <time>2017-05-28T08:56:15Z</time>
      </trkpt>
      <trkpt lat="49.22419" lon="0.00306">
        <ele>96.7</ele>
        <time>2017-05-28T08:56:22Z</time>
      </trkpt>
      <trkpt lat="49.22416" lon="0.00302">
        <ele>95.9</ele>
        <time>2017-05-28T08:56:29Z</time>
      </trkpt>
      <trkpt lat="49.22413" lon="0.00297">
        <ele>95.9</ele>
        <time>2017-05-28T08:56:36Z</time>
      </trkpt>
      <trkpt lat="49.22409" lon="0.00288">
        <ele>97</ele>
        <time>2017-05-28T08:56:42Z</time>
      </trkpt>
      <trkpt lat="49.22407" lon="0.00276">
        <ele>98.4</ele>
        <time>2017-05-28T08:56:49Z</time>
      </trkpt>
      <trkpt lat="49.22404" lon="0.00265">
        <ele>100.5</ele>
        <time>2017-05-28T08:56:55Z</time>
      </trkpt>
      <trkpt lat="49.224" lon="0.00255">
        <ele>102.1</ele>
        <time>2017-05-28T08:57:02Z</time>
      </trkpt>
      <trkpt lat="49.22397" lon="0.00247">
        <ele>102.6</ele>
        <time>2017-05-28T08:57:09Z</time>
      </trkpt>
      <trkpt lat="49.22392" lon="0.00237">
        <ele>103.7</ele>
        <time>2017-05-28T08:57:16Z</time>
      </trkpt>
      <trkpt lat="49.22388" lon="0.00227">
        <ele>102.9</ele>
        <time>2017-05-28T08:57:22Z</time>
      </trkpt>
      <trkpt lat="49.22387" lon="0.00216">
        <ele>101.1</ele>
        <time>2017-05-28T08:57:28Z</time>
      </trkpt>
      <trkpt lat="49.22386" lon="0.00205">
        <ele>99.8</ele>
        <time>2017-05-28T08:57:35Z</time>
      </trkpt>
      <trkpt lat="49.22385" lon="0.00194">
        <ele>98.8</ele>
        <time>2017-05-28T08:57:42Z</time>
      </trkpt>
      <trkpt lat="49.22382" lon="0.00181">
        <ele>99.6</ele>
        <time>2017-05-28T08:57:47Z</time>
      </trkpt>
      <trkpt lat="49.22379" lon="0.00169">
        <ele>101.2</ele>
        <time>2017-05-28T08:57:52Z</time>
      </trkpt>
      <trkpt lat="49.22376" lon="0.00158">
        <ele>103.4</ele>
        <time>2017-05-28T08:57:57Z</time>
      </trkpt>
      <trkpt lat="49.22374" lon="0.00146">
        <ele>107</ele>
        <time>2017-05-28T08:58:03Z</time>
      </trkpt>
      <trkpt lat="49.22372" lon="0.00134">
        <ele>108.1</ele>
        <time>2017-05-28T08:58:10Z</time>
      </trkpt>
      <trkpt lat="49.22369" lon="0.00126">
        <ele>109.1</ele>
        <time>2017-05-28T08:58:17Z</time>
      </trkpt>
      <trkpt lat="49.22368" lon="0.00117">
        <ele>108.1</ele>
        <time>2017-05-28T08:58:24Z</time>
      </trkpt>
      <trkpt lat="49.22366" lon="0.00104">
        <ele>110.1</ele>
        <time>2017-05-28T08:58:30Z</time>
      </trkpt>
      <trkpt lat="49.22363" lon="0.00094">
        <ele>111.6</ele>
        <time>2017-05-28T08:58:36Z</time>
      </trkpt>
      <trkpt lat="49.22362" lon="0.00083">
        <ele>112.7</ele>
        <time>2017-05-28T08:58:42Z</time>
      </trkpt>
      <trkpt lat="49.22359" lon="0.00071">
        <ele>113</ele>
        <time>2017-05-28T08:58:49Z</time>
      </trkpt>
      <trkpt lat="49.22358" lon="0.00061">
        <ele>113.6</ele>
        <time>2017-05-28T08:58:56Z</time>
      </trkpt>
      <trkpt lat="49.22356" lon="0.0005">
        <ele>113.7</ele>
        <time>2017-05-28T08:59:03Z</time>
      </trkpt>
      <trkpt lat="49.22354" lon="0.0004">
        <ele>113.8</ele>
        <time>2017-05-28T08:59:10Z</time>
      </trkpt>
      <trkpt lat="49.22354" lon="0.00027">
        <ele>112.9</ele>
        <time>2017-05-28T08:59:17Z</time>
      </trkpt>
      <trkpt lat="49.22354" lon="0.00017">
        <ele>111.7</ele>
        <time>2017-05-28T08:59:24Z</time>
      </trkpt>
      <trkpt lat="49.22354" lon="0.00016">
        <ele>112</ele>
        <time>2017-05-28T08:59:31Z</time>
      </trkpt>
      <trkpt lat="49.22356" lon="2.0E-5">
        <ele>110.7</ele>
        <time>2017-05-28T08:59:09Z</time>
      </trkpt>
      <trkpt lat="49.22355" lon="-8.0E-5">
        <ele>107.2</ele>
        <time>2017-05-28T09:00:34Z</time>
      </trkpt>
      <trkpt lat="49.22354" lon="-0.00019">
        <ele>104.8</ele>
        <time>2017-05-28T09:00:40Z</time>
      </trkpt>
      <trkpt lat="49.22356" lon="-0.0003">
        <ele>102.8</ele>
        <time>2017-05-28T09:00:46Z</time>
      </trkpt>
      <trkpt lat="49.22356" lon="-0.00042">
        <ele>102.3</ele>
        <time>2017-05-28T09:00:52Z</time>
      </trkpt>
      <trkpt lat="49.22356" lon="-0.00055">
        <ele>100.9</ele>
        <time>2017-05-28T09:00:59Z</time>
      </trkpt>
      <trkpt lat="49.22354" lon="-0.00065">
        <ele>101.4</ele>
        <time>2017-05-28T09:01:04Z</time>
      </trkpt>
      <trkpt lat="49.22354" lon="-0.00075">
        <ele>101.3</ele>
        <time>2017-05-28T09:01:11Z</time>
      </trkpt>
      <trkpt lat="49.22354" lon="-0.00085">
        <ele>100.4</ele>
        <time>2017-05-28T09:01:18Z</time>
      </trkpt>
      <trkpt lat="49.22353" lon="-0.00096">
        <ele>100.7</ele>
        <time>2017-05-28T09:01:24Z</time>
      </trkpt>
      <trkpt lat="49.22352" lon="-0.00109">
        <ele>103.3</ele>
        <time>2017-05-28T09:01:29Z</time>
      </trkpt>
      <trkpt lat="49.22352" lon="-0.00121">
        <ele>103.2</ele>
        <time>2017-05-28T09:01:36Z</time>
      </trkpt>
      <trkpt lat="49.22354" lon="-0.00134">
        <ele>104.9</ele>
        <time>2017-05-28T09:01:42Z</time>
      </trkpt>
      <trkpt lat="49.22354" lon="-0.00146">
        <ele>106</ele>
        <time>2017-05-28T09:01:47Z</time>
      </trkpt>
      <trkpt lat="49.22354" lon="-0.00158">
        <ele>105.7</ele>
        <time>2017-05-28T09:01:53Z</time>
      </trkpt>
      <trkpt lat="49.22354" lon="-0.00169">
        <ele>108.6</ele>
        <time>2017-05-28T09:01:57Z</time>
      </trkpt>
      <trkpt lat="49.22354" lon="-0.00182">
        <ele>110.6</ele>
        <time>2017-05-28T09:02:01Z</time>
      </trkpt>
      <trkpt lat="49.22356" lon="-0.00193">
        <ele>112</ele>
        <time>2017-05-28T09:02:06Z</time>
      </trkpt>
      <trkpt lat="49.22356" lon="-0.00198">
        <ele>112</ele>
        <time>2017-05-28T09:02:13Z</time>
      </trkpt>
      <trkpt lat="49.22358" lon="-0.00206">
        <ele>111.9</ele>
        <time>2017-05-28T09:02:20Z</time>
      </trkpt>
      <trkpt lat="49.2236" lon="-0.00216">
        <ele>113</ele>
        <time>2017-05-28T09:02:27Z</time>
      </trkpt>
      <trkpt lat="49.22364" lon="-0.00226">
        <ele>114.9</ele>
        <time>2017-05-28T09:02:33Z</time>
      </trkpt>
      <trkpt lat="49.22365" lon="-0.00238">
        <ele>114.9</ele>
        <time>2017-05-28T09:02:40Z</time>
      </trkpt>
      <trkpt lat="49.22366" lon="-0.00246">
        <ele>114.4</ele>
        <time>2017-05-28T09:02:47Z</time>
      </trkpt>
      <trkpt lat="49.2237" lon="-0.00258">
        <ele>115.6</ele>
        <time>2017-05-28T09:02:54Z</time>
      </trkpt>
      <trkpt lat="49.22372" lon="-0.00268">
        <ele>115.4</ele>
        <time>2017-05-28T09:03:01Z</time>
      </trkpt>
      <trkpt lat="49.22375" lon="-0.00278">
        <ele>113.3</ele>
        <time>2017-05-28T09:03:08Z</time>
      </trkpt>
      <trkpt lat="49.22378" lon="-0.0029">
        <ele>111.7</ele>
        <time>2017-05-28T09:03:15Z</time>
      </trkpt>
      <trkpt lat="49.2238" lon="-0.00299">
        <ele>110.7</ele>
        <time>2017-05-28T09:03:22Z</time>
      </trkpt>
      <trkpt lat="49.2238" lon="-0.00298">
        <ele>108.9</ele>
        <time>2017-05-28T09:04:30Z</time>
      </trkpt>
      <trkpt lat="49.22384" lon="-0.00307">
        <ele>111.2</ele>
        <time>2017-05-28T09:06:26Z</time>
      </trkpt>
      <trkpt lat="49.22385" lon="-0.00313">
        <ele>108.5</ele>
        <time>2017-05-28T09:06:33Z</time>
      </trkpt>
      <trkpt lat="49.22386" lon="-0.00316">
        <ele>107.2</ele>
        <time>2017-05-28T09:06:40Z</time>
      </trkpt>
      <trkpt lat="49.22391" lon="-0.00324">
        <ele>106</ele>
        <time>2017-05-28T09:06:38Z</time>
      </trkpt>
      <trkpt lat="49.22398" lon="-0.00322">
        <ele>106.7</ele>
        <time>2017-05-28T09:07:51Z</time>
      </trkpt>
      <trkpt lat="49.22405" lon="-0.00317">
        <ele>106.2</ele>
        <time>2017-05-28T09:07:57Z</time>
      </trkpt>
      <trkpt lat="49.22413" lon="-0.00314">
        <ele>105.1</ele>
        <time>2017-05-28T09:08:04Z</time>
      </trkpt>
      <trkpt lat="49.2242" lon="-0.00311">
        <ele>104.4</ele>
        <time>2017-05-28T09:08:11Z</time>
      </trkpt>
      <trkpt lat="49.22425" lon="-0.00308">
        <ele>104.7</ele>
        <time>2017-05-28T09:08:18Z</time>
      </trkpt>
      <trkpt lat="49.22433" lon="-0.00307">
        <ele>105.8</ele>
        <time>2017-05-28T09:08:25Z</time>
      </trkpt>
      <trkpt lat="49.22441" lon="-0.00308">
        <ele>107.6</ele>
        <time>2017-05-28T09:08:32Z</time>
      </trkpt>
      <trkpt lat="49.22447" lon="-0.00309">
        <ele>108.2</ele>
        <time>2017-05-28T09:08:39Z</time>
      </trkpt>
      <trkpt lat="49.22453" lon="-0.00314">
        <ele>108.9</ele>
        <time>2017-05-28T09:08:46Z</time>
      </trkpt>
      <trkpt lat="49.22459" lon="-0.00318">
        <ele>108.8</ele>
        <time>2017-05-28T09:08:53Z</time>
      </trkpt>
      <trkpt lat="49.22464" lon="-0.00322">
        <ele>110</ele>
        <time>2017-05-28T09:09:00Z</time>
      </trkpt>
      <trkpt lat="49.22471" lon="-0.00328">
        <ele>110.2</ele>
        <time>2017-05-28T09:09:07Z</time>
      </trkpt>
      <trkpt lat="49.22478" lon="-0.00333">
        <ele>111</ele>
        <time>2017-05-28T09:09:14Z</time>
      </trkpt>
      <trkpt lat="49.22484" lon="-0.00338">
        <ele>108.5</ele>
        <time>2017-05-28T09:09:20Z</time>
      </trkpt>
      <trkpt lat="49.22491" lon="-0.00344">
        <ele>105.8</ele>
        <time>2017-05-28T09:09:27Z</time>
      </trkpt>
      <trkpt lat="49.22499" lon="-0.0035">
        <ele>102.5</ele>
        <time>2017-05-28T09:09:33Z</time>
      </trkpt>
      <trkpt lat="49.22505" lon="-0.00355">
        <ele>102.2</ele>
        <time>2017-05-28T09:09:39Z</time>
      </trkpt>
      <trkpt lat="49.22512" lon="-0.00362">
        <ele>101.1</ele>
        <time>2017-05-28T09:09:46Z</time>
      </trkpt>
      <trkpt lat="49.22518" lon="-0.00368">
        <ele>99.6</ele>
        <time>2017-05-28T09:09:53Z</time>
      </trkpt>
      <trkpt lat="49.22524" lon="-0.00373">
        <ele>98.5</ele>
        <time>2017-05-28T09:10:00Z</time>
      </trkpt>
      <trkpt lat="49.22529" lon="-0.00377">
        <ele>96.1</ele>
        <time>2017-05-28T09:10:07Z</time>
      </trkpt>
      <trkpt lat="49.22535" lon="-0.00382">
        <ele>92.9</ele>
        <time>2017-05-28T09:10:14Z</time>
      </trkpt>
      <trkpt lat="49.22538" lon="-0.00385">
        <ele>92.5</ele>
        <time>2017-05-28T09:10:21Z</time>
      </trkpt>
      <trkpt lat="49.22542" lon="-0.0039">
        <ele>94.3</ele>
        <time>2017-05-28T09:10:28Z</time>
      </trkpt>
      <trkpt lat="49.22546" lon="-0.00401">
        <ele>96.5</ele>
        <time>2017-05-28T09:10:35Z</time>
      </trkpt>
      <trkpt lat="49.22551" lon="-0.0041">
        <ele>97.7</ele>
        <time>2017-05-28T09:10:42Z</time>
      </trkpt>
      <trkpt lat="49.22554" lon="-0.00418">
        <ele>96</ele>
        <time>2017-05-28T09:10:49Z</time>
      </trkpt>
      <trkpt lat="49.22556" lon="-0.00425">
        <ele>94.2</ele>
        <time>2017-05-28T09:10:56Z</time>
      </trkpt>
      <trkpt lat="49.22556" lon="-0.00437">
        <ele>94</ele>
        <time>2017-05-28T09:11:03Z</time>
      </trkpt>
      <trkpt lat="49.22556" lon="-0.00449">
        <ele>94.8</ele>
        <time>2017-05-28T09:11:10Z</time>
      </trkpt>
      <trkpt lat="49.22556" lon="-0.00456">
        <ele>95.7</ele>
        <time>2017-05-28T09:11:17Z</time>
      </trkpt>
      <trkpt lat="49.22557" lon="-0.00465">
        <ele>98</ele>
        <time>2017-05-28T09:11:24Z</time>
      </trkpt>
      <trkpt lat="49.22559" lon="-0.00475">
        <ele>100.3</ele>
        <time>2017-05-28T09:11:31Z</time>
      </trkpt>
      <trkpt lat="49.22561" lon="-0.00484">
        <ele>100.6</ele>
        <time>2017-05-28T09:11:38Z</time>
      </trkpt>
      <trkpt lat="49.22563" lon="-0.00495">
        <ele>100.7</ele>
        <time>2017-05-28T09:11:45Z</time>
      </trkpt>
      <trkpt lat="49.22566" lon="-0.00506">
        <ele>101.3</ele>
        <time>2017-05-28T09:11:51Z</time>
      </trkpt>
      <trkpt lat="49.22569" lon="-0.00517">
        <ele>101.5</ele>
        <time>2017-05-28T09:11:58Z</time>
      </trkpt>
      <trkpt lat="49.22571" lon="-0.00525">
        <ele>102.3</ele>
        <time>2017-05-28T09:12:05Z</time>
      </trkpt>
      <trkpt lat="49.22572" lon="-0.00533">
        <ele>103.5</ele>
        <time>2017-05-28T09:12:12Z</time>
      </trkpt>
      <trkpt lat="49.22569" lon="-0.00539">
        <ele>105.3</ele>
        <time>2017-05-28T09:12:19Z</time>
      </trkpt>
      <trkpt lat="49.22567" lon="-0.00547">
        <ele>105.8</ele>
        <time>2017-05-28T09:12:26Z</time>
      </trkpt>
      <trkpt lat="49.22565" lon="-0.00556">
        <ele>105.3</ele>
        <time>2017-05-28T09:12:33Z</time>
      </trkpt>
      <trkpt lat="49.22567" lon="-0.00567">
        <ele>106.7</ele>
        <time>2017-05-28T09:12:40Z</time>
      </trkpt>
      <trkpt lat="49.22569" lon="-0.00576">
        <ele>106.7</ele>
        <time>2017-05-28T09:12:47Z</time>
      </trkpt>
      <trkpt lat="49.22573" lon="-0.00582">
        <ele>104.1</ele>
        <time>2017-05-28T09:12:54Z</time>
      </trkpt>
      <trkpt lat="49.22576" lon="-0.0059">
        <ele>104.2</ele>
        <time>2017-05-28T09:13:01Z</time>
      </trkpt>
      <trkpt lat="49.2258" lon="-0.00599">
        <ele>103.6</ele>
        <time>2017-05-28T09:13:08Z</time>
      </trkpt>
      <trkpt lat="49.22585" lon="-0.00607">
        <ele>103.3</ele>
        <time>2017-05-28T09:13:15Z</time>
      </trkpt>
      <trkpt lat="49.22589" lon="-0.00613">
        <ele>102.2</ele>
        <time>2017-05-28T09:13:22Z</time>
      </trkpt>
      <trkpt lat="49.22595" lon="-0.0062">
        <ele>101.4</ele>
        <time>2017-05-28T09:13:29Z</time>
      </trkpt>
      <trkpt lat="49.22601" lon="-0.00629">
        <ele>100.6</ele>
        <time>2017-05-28T09:13:34Z</time>
      </trkpt>
      <trkpt lat="49.22606" lon="-0.00637">
        <ele>100.5</ele>
        <time>2017-05-28T09:13:41Z</time>
      </trkpt>
      <trkpt lat="49.22611" lon="-0.00644">
        <ele>99.9</ele>
        <time>2017-05-28T09:13:48Z</time>
      </trkpt>
      <trkpt lat="49.22616" lon="-0.00653">
        <ele>100.6</ele>
        <time>2017-05-28T09:13:55Z</time>
      </trkpt>
      <trkpt lat="49.22622" lon="-0.00658">
        <ele>100.4</ele>
        <time>2017-05-28T09:14:01Z</time>
      </trkpt>
      <trkpt lat="49.22628" lon="-0.00666">
        <ele>100.9</ele>
        <time>2017-05-28T09:14:08Z</time>
      </trkpt>
      <trkpt lat="49.22632" lon="-0.00672">
        <ele>100.5</ele>
        <time>2017-05-28T09:14:15Z</time>
      </trkpt>
      <trkpt lat="49.22637" lon="-0.0068">
        <ele>101.9</ele>
        <time>2017-05-28T09:14:22Z</time>
      </trkpt>
      <trkpt lat="49.22643" lon="-0.00689">
        <ele>102.7</ele>
        <time>2017-05-28T09:14:29Z</time>
      </trkpt>
      <trkpt lat="49.22648" lon="-0.00697">
        <ele>103.1</ele>
        <time>2017-05-28T09:14:35Z</time>
      </trkpt>
      <trkpt lat="49.22653" lon="-0.00705">
        <ele>102.6</ele>
        <time>2017-05-28T09:14:42Z</time>
      </trkpt>
      <trkpt lat="49.22659" lon="-0.00712">
        <ele>103.1</ele>
        <time>2017-05-28T09:14:49Z</time>
      </trkpt>
      <trkpt lat="49.22664" lon="-0.00722">
        <ele>104.1</ele>
        <time>2017-05-28T09:14:56Z</time>
      </trkpt>
      <trkpt lat="49.2267" lon="-0.00731">
        <ele>104.1</ele>
        <time>2017-05-28T09:15:03Z</time>
      </trkpt>
      <trkpt lat="49.22676" lon="-0.00739">
        <ele>104.8</ele>
        <time>2017-05-28T09:15:09Z</time>
      </trkpt>
      <trkpt lat="49.22681" lon="-0.00747">
        <ele>105</ele>
        <time>2017-05-28T09:15:16Z</time>
      </trkpt>
      <trkpt lat="49.22687" lon="-0.00755">
        <ele>106.1</ele>
        <time>2017-05-28T09:15:23Z</time>
      </trkpt>
      <trkpt lat="49.22692" lon="-0.0076">
        <ele>105.6</ele>
        <time>2017-05-28T09:15:30Z</time>
      </trkpt>
      <trkpt lat="49.22697" lon="-0.00767">
        <ele>105.6</ele>
        <time>2017-05-28T09:15:37Z</time>
      </trkpt>
      <trkpt lat="49.22702" lon="-0.00772">
        <ele>104.7</ele>
        <time>2017-05-28T09:15:44Z</time>
      </trkpt>
      <trkpt lat="49.22708" lon="-0.00779">
        <ele>104.8</ele>
        <time>2017-05-28T09:15:50Z</time>
      </trkpt>
      <trkpt lat="49.22714" lon="-0.00785">
        <ele>103.5</ele>
        <time>2017-05-28T09:15:56Z</time>
      </trkpt>
      <trkpt lat="49.22719" lon="-0.00791">
        <ele>102.7</ele>
        <time>2017-05-28T09:16:03Z</time>
      </trkpt>
      <trkpt lat="49.22724" lon="-0.00796">
        <ele>101.1</ele>
        <time>2017-05-28T09:16:10Z</time>
      </trkpt>
      <trkpt lat="49.2273" lon="-0.00805">
        <ele>98.8</ele>
        <time>2017-05-28T09:16:15Z</time>
      </trkpt>
      <trkpt lat="49.22736" lon="-0.00813">
        <ele>97.1</ele>
        <time>2017-05-28T09:16:21Z</time>
      </trkpt>
      <trkpt lat="49.22743" lon="-0.00818">
        <ele>95.1</ele>
        <time>2017-05-28T09:16:27Z</time>
      </trkpt>
      <trkpt lat="49.2275" lon="-0.00826">
        <ele>93.2</ele>
        <time>2017-05-28T09:16:34Z</time>
      </trkpt>
      <trkpt lat="49.22756" lon="-0.00832">
        <ele>91</ele>
        <time>2017-05-28T09:16:41Z</time>
      </trkpt>
      <trkpt lat="49.2276" lon="-0.0084">
        <ele>90.4</ele>
        <time>2017-05-28T09:16:48Z</time>
      </trkpt>
      <trkpt lat="49.22765" lon="-0.00849">
        <ele>91.8</ele>
        <time>2017-05-28T09:16:55Z</time>
      </trkpt>
      <trkpt lat="49.22768" lon="-0.00859">
        <ele>92.9</ele>
        <time>2017-05-28T09:17:02Z</time>
      </trkpt>
      <trkpt lat="49.22773" lon="-0.00868">
        <ele>93.2</ele>
        <time>2017-05-28T09:17:09Z</time>
      </trkpt>
      <trkpt lat="49.22776" lon="-0.00876">
        <ele>94.1</ele>
        <time>2017-05-28T09:17:16Z</time>
      </trkpt>
      <trkpt lat="49.2278" lon="-0.00886">
        <ele>94.2</ele>
        <time>2017-05-28T09:17:23Z</time>
      </trkpt>
      <trkpt lat="49.22782" lon="-0.00896">
        <ele>94.9</ele>
        <time>2017-05-28T09:17:30Z</time>
      </trkpt>
      <trkpt lat="49.22786" lon="-0.00905">
        <ele>94.9</ele>
        <time>2017-05-28T09:17:37Z</time>
      </trkpt>
      <trkpt lat="49.22789" lon="-0.00916">
        <ele>96.2</ele>
        <time>2017-05-28T09:17:44Z</time>
      </trkpt>
      <trkpt lat="49.22791" lon="-0.00926">
        <ele>97.1</ele>
        <time>2017-05-28T09:17:51Z</time>
      </trkpt>
      <trkpt lat="49.22796" lon="-0.00934">
        <ele>97.1</ele>
        <time>2017-05-28T09:17:56Z</time>
      </trkpt>
      <trkpt lat="49.22802" lon="-0.00943">
        <ele>96.9</ele>
        <time>2017-05-28T09:18:02Z</time>
      </trkpt>
      <trkpt lat="49.22805" lon="-0.00952">
        <ele>99.8</ele>
        <time>2017-05-28T09:18:09Z</time>
      </trkpt>
      <trkpt lat="49.22807" lon="-0.00954">
        <ele>102.9</ele>
        <time>2017-05-28T09:18:16Z</time>
      </trkpt>
      <trkpt lat="49.22816" lon="-0.00971">
        <ele>101.5</ele>
        <time>2017-05-28T09:26:21Z</time>
      </trkpt>
      <trkpt lat="49.22817" lon="-0.00984">
        <ele>100.9</ele>
        <time>2017-05-28T09:26:28Z</time>
      </trkpt>
      <trkpt lat="49.22819" lon="-0.00996">
        <ele>103.4</ele>
        <time>2017-05-28T09:26:34Z</time>
      </trkpt>
      <trkpt lat="49.2282" lon="-0.01006">
        <ele>105.8</ele>
        <time>2017-05-28T09:26:41Z</time>
      </trkpt>
      <trkpt lat="49.22822" lon="-0.01016">
        <ele>106.6</ele>
        <time>2017-05-28T09:26:48Z</time>
      </trkpt>
      <trkpt lat="49.22823" lon="-0.01025">
        <ele>105.9</ele>
        <time>2017-05-28T09:26:55Z</time>
      </trkpt>
      <trkpt lat="49.22826" lon="-0.01037">
        <ele>105.5</ele>
        <time>2017-05-28T09:27:02Z</time>
      </trkpt>
      <trkpt lat="49.22828" lon="-0.01048">
        <ele>106.1</ele>
        <time>2017-05-28T09:27:08Z</time>
      </trkpt>
      <trkpt lat="49.22829" lon="-0.0106">
        <ele>106.3</ele>
        <time>2017-05-28T09:27:15Z</time>
      </trkpt>
      <trkpt lat="49.22832" lon="-0.01072">
        <ele>104.6</ele>
        <time>2017-05-28T09:27:22Z</time>
      </trkpt>
      <trkpt lat="49.22836" lon="-0.01082">
        <ele>103.4</ele>
        <time>2017-05-28T09:27:27Z</time>
      </trkpt>
      <trkpt lat="49.2284" lon="-0.01092">
        <ele>102.5</ele>
        <time>2017-05-28T09:27:33Z</time>
      </trkpt>
      <trkpt lat="49.22844" lon="-0.01103">
        <ele>101.8</ele>
        <time>2017-05-28T09:27:40Z</time>
      </trkpt>
      <trkpt lat="49.22846" lon="-0.01116">
        <ele>102.1</ele>
        <time>2017-05-28T09:27:45Z</time>
      </trkpt>
      <trkpt lat="49.22845" lon="-0.01129">
        <ele>103.8</ele>
        <time>2017-05-28T09:27:49Z</time>
      </trkpt>
      <trkpt lat="49.22847" lon="-0.01141">
        <ele>103.8</ele>
        <time>2017-05-28T09:27:55Z</time>
      </trkpt>
      <trkpt lat="49.22847" lon="-0.01154">
        <ele>104.5</ele>
        <time>2017-05-28T09:28:01Z</time>
      </trkpt>
      <trkpt lat="49.22849" lon="-0.01165">
        <ele>105.7</ele>
        <time>2017-05-28T09:28:07Z</time>
      </trkpt>
      <trkpt lat="49.2285" lon="-0.01176">
        <ele>106.8</ele>
        <time>2017-05-28T09:28:13Z</time>
      </trkpt>
      <trkpt lat="49.22851" lon="-0.01187">
        <ele>108</ele>
        <time>2017-05-28T09:28:19Z</time>
      </trkpt>
      <trkpt lat="49.22852" lon="-0.01198">
        <ele>107.5</ele>
        <time>2017-05-28T09:28:25Z</time>
      </trkpt>
      <trkpt lat="49.22855" lon="-0.01209">
        <ele>106</ele>
        <time>2017-05-28T09:28:32Z</time>
      </trkpt>
      <trkpt lat="49.22858" lon="-0.01222">
        <ele>106.1</ele>
        <time>2017-05-28T09:28:38Z</time>
      </trkpt>
      <trkpt lat="49.2286" lon="-0.01233">
        <ele>106.3</ele>
        <time>2017-05-28T09:28:43Z</time>
      </trkpt>
      <trkpt lat="49.22864" lon="-0.01243">
        <ele>105.6</ele>
        <time>2017-05-28T09:28:49Z</time>
      </trkpt>
      <trkpt lat="49.22868" lon="-0.01253">
        <ele>105.6</ele>
        <time>2017-05-28T09:28:55Z</time>
      </trkpt>
      <trkpt lat="49.22869" lon="-0.01265">
        <ele>105.2</ele>
        <time>2017-05-28T09:29:02Z</time>
      </trkpt>
      <trkpt lat="49.22871" lon="-0.01273">
        <ele>106.7</ele>
        <time>2017-05-28T09:29:09Z</time>
      </trkpt>
      <trkpt lat="49.22874" lon="-0.01281">
        <ele>107</ele>
        <time>2017-05-28T09:29:16Z</time>
      </trkpt>
      <trkpt lat="49.22874" lon="-0.01292">
        <ele>105.1</ele>
        <time>2017-05-28T09:29:22Z</time>
      </trkpt>
      <trkpt lat="49.22877" lon="-0.01303">
        <ele>104.2</ele>
        <time>2017-05-28T09:29:29Z</time>
      </trkpt>
      <trkpt lat="49.22881" lon="-0.01308">
        <ele>101.9</ele>
        <time>2017-05-28T09:29:36Z</time>
      </trkpt>
      <trkpt lat="49.22886" lon="-0.01312">
        <ele>100.2</ele>
        <time>2017-05-28T09:29:43Z</time>
      </trkpt>
      <trkpt lat="49.22892" lon="-0.01317">
        <ele>99.6</ele>
        <time>2017-05-28T09:29:50Z</time>
      </trkpt>
      <trkpt lat="49.22896" lon="-0.01321">
        <ele>98.4</ele>
        <time>2017-05-28T09:29:57Z</time>
      </trkpt>
      <trkpt lat="49.22903" lon="-0.01326">
        <ele>96.4</ele>
        <time>2017-05-28T09:30:04Z</time>
      </trkpt>
      <trkpt lat="49.2291" lon="-0.01332">
        <ele>95.1</ele>
        <time>2017-05-28T09:30:11Z</time>
      </trkpt>
      <trkpt lat="49.22915" lon="-0.01336">
        <ele>95.2</ele>
        <time>2017-05-28T09:30:18Z</time>
      </trkpt>
      <trkpt lat="49.22922" lon="-0.0134">
        <ele>96.5</ele>
        <time>2017-05-28T09:30:25Z</time>
      </trkpt>
      <trkpt lat="49.22928" lon="-0.01344">
        <ele>95.2</ele>
        <time>2017-05-28T09:30:32Z</time>
      </trkpt>
      <trkpt lat="49.22934" lon="-0.01348">
        <ele>93.7</ele>
        <time>2017-05-28T09:30:39Z</time>
      </trkpt>
      <trkpt lat="49.22941" lon="-0.01353">
        <ele>93.2</ele>
        <time>2017-05-28T09:30:45Z</time>
      </trkpt>
      <trkpt lat="49.22949" lon="-0.01357">
        <ele>92.7</ele>
        <time>2017-05-28T09:30:51Z</time>
      </trkpt>
      <trkpt lat="49.22956" lon="-0.0136">
        <ele>93.1</ele>
        <time>2017-05-28T09:30:58Z</time>
      </trkpt>
      <trkpt lat="49.22963" lon="-0.01361">
        <ele>93</ele>
        <time>2017-05-28T09:31:05Z</time>
      </trkpt>
      <trkpt lat="49.2297" lon="-0.0136">
        <ele>89.4</ele>
        <time>2017-05-28T09:31:12Z</time>
      </trkpt>
      <trkpt lat="49.22978" lon="-0.01363">
        <ele>89.1</ele>
        <time>2017-05-28T09:31:18Z</time>
      </trkpt>
      <trkpt lat="49.22985" lon="-0.01365">
        <ele>90.3</ele>
        <time>2017-05-28T09:31:24Z</time>
      </trkpt>
      <trkpt lat="49.22992" lon="-0.01369">
        <ele>90.1</ele>
        <time>2017-05-28T09:31:29Z</time>
      </trkpt>
      <trkpt lat="49.23" lon="-0.01376">
        <ele>88.9</ele>
        <time>2017-05-28T09:31:34Z</time>
      </trkpt>
      <trkpt lat="49.23008" lon="-0.0138">
        <ele>90.5</ele>
        <time>2017-05-28T09:31:40Z</time>
      </trkpt>
      <trkpt lat="49.23013" lon="-0.01382">
        <ele>89.8</ele>
        <time>2017-05-28T09:31:47Z</time>
      </trkpt>
      <trkpt lat="49.23021" lon="-0.01386">
        <ele>90.5</ele>
        <time>2017-05-28T09:31:53Z</time>
      </trkpt>
      <trkpt lat="49.23027" lon="-0.01392">
        <ele>91.1</ele>
        <time>2017-05-28T09:31:57Z</time>
      </trkpt>
      <trkpt lat="49.23034" lon="-0.01397">
        <ele>90.6</ele>
        <time>2017-05-28T09:32:03Z</time>
      </trkpt>
      <trkpt lat="49.23043" lon="-0.01402">
        <ele>90.8</ele>
        <time>2017-05-28T09:32:09Z</time>
      </trkpt>
      <trkpt lat="49.23048" lon="-0.01403">
        <ele>89.2</ele>
        <time>2017-05-28T09:32:16Z</time>
      </trkpt>
      <trkpt lat="49.23055" lon="-0.01406">
        <ele>90.2</ele>
        <time>2017-05-28T09:32:22Z</time>
      </trkpt>
      <trkpt lat="49.23064" lon="-0.01406">
        <ele>90</ele>
        <time>2017-05-28T09:32:29Z</time>
      </trkpt>
      <trkpt lat="49.23071" lon="-0.01406">
        <ele>93.2</ele>
        <time>2017-05-28T09:32:33Z</time>
      </trkpt>
      <trkpt lat="49.2308" lon="-0.01405">
        <ele>97.1</ele>
        <time>2017-05-28T09:32:39Z</time>
      </trkpt>
      <trkpt lat="49.23088" lon="-0.01405">
        <ele>95.6</ele>
        <time>2017-05-28T09:32:46Z</time>
      </trkpt>
      <trkpt lat="49.23096" lon="-0.01406">
        <ele>98</ele>
        <time>2017-05-28T09:32:52Z</time>
      </trkpt>
      <trkpt lat="49.23104" lon="-0.0141">
        <ele>99.3</ele>
        <time>2017-05-28T09:32:59Z</time>
      </trkpt>
      <trkpt lat="49.23108" lon="-0.01412">
        <ele>95.6</ele>
        <time>2017-05-28T09:33:06Z</time>
      </trkpt>
      <trkpt lat="49.23112" lon="-0.01415">
        <ele>91.1</ele>
        <time>2017-05-28T09:33:13Z</time>
      </trkpt>
      <trkpt lat="49.23113" lon="-0.01414">
        <ele>90.1</ele>
        <time>2017-05-28T09:33:20Z</time>
      </trkpt>
      <trkpt lat="49.23127" lon="-0.01419">
        <ele>80.8</ele>
        <time>2017-05-28T09:34:01Z</time>
      </trkpt>
      <trkpt lat="49.23131" lon="-0.01422">
        <ele>73.1</ele>
        <time>2017-05-28T09:34:08Z</time>
      </trkpt>
      <trkpt lat="49.23137" lon="-0.01424">
        <ele>65.7</ele>
        <time>2017-05-28T09:34:15Z</time>
      </trkpt>
      <trkpt lat="49.23145" lon="-0.01426">
        <ele>67.1</ele>
        <time>2017-05-28T09:34:20Z</time>
      </trkpt>
      <trkpt lat="49.23149" lon="-0.0143">
        <ele>63.3</ele>
        <time>2017-05-28T09:34:27Z</time>
      </trkpt>
      <trkpt lat="49.23155" lon="-0.01435">
        <ele>60.8</ele>
        <time>2017-05-28T09:34:34Z</time>
      </trkpt>
      <trkpt lat="49.23163" lon="-0.01435">
        <ele>63.7</ele>
        <time>2017-05-28T09:34:40Z</time>
      </trkpt>
      <trkpt lat="49.23171" lon="-0.01437">
        <ele>70.3</ele>
        <time>2017-05-28T09:34:43Z</time>
      </trkpt>
      <trkpt lat="49.23179" lon="-0.01441">
        <ele>75.2</ele>
        <time>2017-05-28T09:34:47Z</time>
      </trkpt>
      <trkpt lat="49.23183" lon="-0.01442">
        <ele>73.1</ele>
        <time>2017-05-28T09:34:54Z</time>
      </trkpt>
      <trkpt lat="49.2319" lon="-0.01442">
        <ele>75.1</ele>
        <time>2017-05-28T09:35:01Z</time>
      </trkpt>
      <trkpt lat="49.23197" lon="-0.01442">
        <ele>75.3</ele>
        <time>2017-05-28T09:35:08Z</time>
      </trkpt>
      <trkpt lat="49.23203" lon="-0.01443">
        <ele>75.3</ele>
        <time>2017-05-28T09:35:15Z</time>
      </trkpt>
      <trkpt lat="49.23206" lon="-0.01443">
        <ele>75.7</ele>
        <time>2017-05-28T09:35:22Z</time>
      </trkpt>
      <trkpt lat="49.23206" lon="-0.01441">
        <ele>74.2</ele>
        <time>2017-05-28T09:35:29Z</time>
      </trkpt>
      <trkpt lat="49.23219" lon="-0.01437">
        <ele>70.9</ele>
        <time>2017-05-28T09:36:48Z</time>
      </trkpt>
      <trkpt lat="49.23219" lon="-0.01437">
        <ele>70.5</ele>
        <time>2017-05-28T09:36:55Z</time>
      </trkpt>
      <trkpt lat="49.23226" lon="-0.01434">
        <ele>68.4</ele>
        <time>2017-05-28T09:36:59Z</time>
      </trkpt>
      <trkpt lat="49.23233" lon="-0.01432">
        <ele>65.6</ele>
        <time>2017-05-28T09:37:06Z</time>
      </trkpt>
      <trkpt lat="49.23239" lon="-0.01431">
        <ele>62.9</ele>
        <time>2017-05-28T09:37:13Z</time>
      </trkpt>
      <trkpt lat="49.23246" lon="-0.0143">
        <ele>61.3</ele>
        <time>2017-05-28T09:37:20Z</time>
      </trkpt>
      <trkpt lat="49.23251" lon="-0.01429">
        <ele>59.2</ele>
        <time>2017-05-28T09:37:27Z</time>
      </trkpt>
      <trkpt lat="49.23252" lon="-0.01428">
        <ele>58.3</ele>
        <time>2017-05-28T09:37:34Z</time>
      </trkpt>
      <trkpt lat="49.23259" lon="-0.01424">
        <ele>55.3</ele>
        <time>2017-05-28T09:37:58Z</time>
      </trkpt>
      <trkpt lat="49.23263" lon="-0.01418">
        <ele>54.6</ele>
        <time>2017-05-28T09:38:05Z</time>
      </trkpt>
      <trkpt lat="49.23267" lon="-0.01414">
        <ele>55.5</ele>
        <time>2017-05-28T09:38:12Z</time>
      </trkpt>
      <trkpt lat="49.2327" lon="-0.01409">
        <ele>55.8</ele>
        <time>2017-05-28T09:38:19Z</time>
      </trkpt>
      <trkpt lat="49.23275" lon="-0.01408">
        <ele>59</ele>
        <time>2017-05-28T09:38:26Z</time>
      </trkpt>
      <trkpt lat="49.23279" lon="-0.01403">
        <ele>60.9</ele>
        <time>2017-05-28T09:38:33Z</time>
      </trkpt>
      <trkpt lat="49.2328" lon="-0.01402">
        <ele>62.3</ele>
        <time>2017-05-28T09:38:40Z</time>
      </trkpt>
      <trkpt lat="49.23288" lon="-0.01399">
        <ele>71.3</ele>
        <time>2017-05-28T09:38:46Z</time>
      </trkpt>
      <trkpt lat="49.23296" lon="-0.01402">
        <ele>75.4</ele>
        <time>2017-05-28T09:38:49Z</time>
      </trkpt>
      <trkpt lat="49.23304" lon="-0.01403">
        <ele>78.5</ele>
        <time>2017-05-28T09:38:53Z</time>
      </trkpt>
      <trkpt lat="49.23311" lon="-0.01399">
        <ele>81.1</ele>
        <time>2017-05-28T09:39:00Z</time>
      </trkpt>
      <trkpt lat="49.23319" lon="-0.01399">
        <ele>83.9</ele>
        <time>2017-05-28T09:39:06Z</time>
      </trkpt>
      <trkpt lat="49.23326" lon="-0.01398">
        <ele>83.2</ele>
        <time>2017-05-28T09:39:13Z</time>
      </trkpt>
      <trkpt lat="49.23335" lon="-0.01397">
        <ele>85.9</ele>
        <time>2017-05-28T09:39:19Z</time>
      </trkpt>
      <trkpt lat="49.2334" lon="-0.0139">
        <ele>89</ele>
        <time>2017-05-28T09:39:26Z</time>
      </trkpt>
      <trkpt lat="49.23348" lon="-0.01389">
        <ele>94.3</ele>
        <time>2017-05-28T09:40:06Z</time>
      </trkpt>
      <trkpt lat="49.23354" lon="-0.01389">
        <ele>90.5</ele>
        <time>2017-05-28T09:40:13Z</time>
      </trkpt>
      <trkpt lat="49.23358" lon="-0.01385">
        <ele>85.7</ele>
        <time>2017-05-28T09:40:20Z</time>
      </trkpt>
      <trkpt lat="49.23373" lon="-0.01384">
        <ele>82.3</ele>
        <time>2017-05-28T09:41:49Z</time>
      </trkpt>
      <trkpt lat="49.23376" lon="-0.01378">
        <ele>84</ele>
        <time>2017-05-28T09:41:56Z</time>
      </trkpt>
      <trkpt lat="49.23382" lon="-0.01372">
        <ele>83.6</ele>
        <time>2017-05-28T09:42:03Z</time>
      </trkpt>
      <trkpt lat="49.23389" lon="-0.01365">
        <ele>84</ele>
        <time>2017-05-28T09:42:10Z</time>
      </trkpt>
      <trkpt lat="49.23394" lon="-0.01359">
        <ele>81.6</ele>
        <time>2017-05-28T09:42:17Z</time>
      </trkpt>
      <trkpt lat="49.23401" lon="-0.01354">
        <ele>79.2</ele>
        <time>2017-05-28T09:42:24Z</time>
      </trkpt>
      <trkpt lat="49.23408" lon="-0.01354">
        <ele>73.1</ele>
        <time>2017-05-28T09:42:31Z</time>
      </trkpt>
      <trkpt lat="49.23416" lon="-0.01355">
        <ele>75</ele>
        <time>2017-05-28T09:42:38Z</time>
      </trkpt>
      <trkpt lat="49.23424" lon="-0.01357">
        <ele>77</ele>
        <time>2017-05-28T09:42:43Z</time>
      </trkpt>
      <trkpt lat="49.2343" lon="-0.01361">
        <ele>81.1</ele>
        <time>2017-05-28T09:42:50Z</time>
      </trkpt>
      <trkpt lat="49.23437" lon="-0.01367">
        <ele>81.7</ele>
        <time>2017-05-28T09:42:57Z</time>
      </trkpt>
      <trkpt lat="49.23441" lon="-0.01372">
        <ele>82.6</ele>
        <time>2017-05-28T09:43:04Z</time>
      </trkpt>
      <trkpt lat="49.23448" lon="-0.01378">
        <ele>83</ele>
        <time>2017-05-28T09:43:11Z</time>
      </trkpt>
      <trkpt lat="49.23456" lon="-0.01385">
        <ele>83.9</ele>
        <time>2017-05-28T09:43:17Z</time>
      </trkpt>
      <trkpt lat="49.23463" lon="-0.01389">
        <ele>86</ele>
        <time>2017-05-28T09:43:21Z</time>
      </trkpt>
      <trkpt lat="49.23471" lon="-0.01396">
        <ele>86.4</ele>
        <time>2017-05-28T09:43:27Z</time>
      </trkpt>
      <trkpt lat="49.23478" lon="-0.01406">
        <ele>87.9</ele>
        <time>2017-05-28T09:43:31Z</time>
      </trkpt>
      <trkpt lat="49.23484" lon="-0.01414">
        <ele>88.7</ele>
        <time>2017-05-28T09:43:33Z</time>
      </trkpt>
      <trkpt lat="49.23491" lon="-0.01422">
        <ele>90.3</ele>
        <time>2017-05-28T09:43:36Z</time>
      </trkpt>
      <trkpt lat="49.23499" lon="-0.01428">
        <ele>95.3</ele>
        <time>2017-05-28T09:43:39Z</time>
      </trkpt>
      <trkpt lat="49.23506" lon="-0.01436">
        <ele>98.1</ele>
        <time>2017-05-28T09:43:44Z</time>
      </trkpt>
      <trkpt lat="49.23513" lon="-0.01441">
        <ele>100.4</ele>
        <time>2017-05-28T09:43:50Z</time>
      </trkpt>
      <trkpt lat="49.23519" lon="-0.01448">
        <ele>102</ele>
        <time>2017-05-28T09:43:56Z</time>
      </trkpt>
      <trkpt lat="49.23525" lon="-0.01458">
        <ele>103.7</ele>
        <time>2017-05-28T09:44:00Z</time>
      </trkpt>
      <trkpt lat="49.2353" lon="-0.01466">
        <ele>103.6</ele>
        <time>2017-05-28T09:44:05Z</time>
      </trkpt>
      <trkpt lat="49.23536" lon="-0.01475">
        <ele>104</ele>
        <time>2017-05-28T09:44:11Z</time>
      </trkpt>
      <trkpt lat="49.23542" lon="-0.01484">
        <ele>104.1</ele>
        <time>2017-05-28T09:44:16Z</time>
      </trkpt>
      <trkpt lat="49.23548" lon="-0.01492">
        <ele>102.4</ele>
        <time>2017-05-28T09:44:22Z</time>
      </trkpt>
      <trkpt lat="49.23554" lon="-0.01502">
        <ele>100</ele>
        <time>2017-05-28T09:44:28Z</time>
      </trkpt>
      <trkpt lat="49.23559" lon="-0.01511">
        <ele>98.3</ele>
        <time>2017-05-28T09:44:35Z</time>
      </trkpt>
      <trkpt lat="49.23562" lon="-0.01519">
        <ele>96.7</ele>
        <time>2017-05-28T09:44:42Z</time>
      </trkpt>
      <trkpt lat="49.23565" lon="-0.01528">
        <ele>94.8</ele>
        <time>2017-05-28T09:44:49Z</time>
      </trkpt>
      <trkpt lat="49.2357" lon="-0.01535">
        <ele>93.1</ele>
        <time>2017-05-28T09:44:56Z</time>
      </trkpt>
      <trkpt lat="49.23574" lon="-0.01545">
        <ele>91.4</ele>
        <time>2017-05-28T09:45:02Z</time>
      </trkpt>
      <trkpt lat="49.23579" lon="-0.01554">
        <ele>91.4</ele>
        <time>2017-05-28T09:45:06Z</time>
      </trkpt>
      <trkpt lat="49.23586" lon="-0.01562">
        <ele>93.4</ele>
        <time>2017-05-28T09:45:10Z</time>
      </trkpt>
      <trkpt lat="49.23593" lon="-0.0157">
        <ele>96.5</ele>
        <time>2017-05-28T09:45:14Z</time>
      </trkpt>
      <trkpt lat="49.23599" lon="-0.01578">
        <ele>98.3</ele>
        <time>2017-05-28T09:45:19Z</time>
      </trkpt>
      <trkpt lat="49.23605" lon="-0.01588">
        <ele>96.7</ele>
        <time>2017-05-28T09:45:25Z</time>
      </trkpt>
      <trkpt lat="49.2361" lon="-0.01596">
        <ele>95.4</ele>
        <time>2017-05-28T09:45:30Z</time>
      </trkpt>
      <trkpt lat="49.23614" lon="-0.01605">
        <ele>94.5</ele>
        <time>2017-05-28T09:45:36Z</time>
      </trkpt>
      <trkpt lat="49.23618" lon="-0.01606">
        <ele>94.8</ele>
        <time>2017-05-28T09:45:43Z</time>
      </trkpt>
      <trkpt lat="49.23619" lon="-0.016">
        <ele>96.2</ele>
        <time>2017-05-28T09:45:57Z</time>
      </trkpt>
      <trkpt lat="49.23614" lon="-0.01592">
        <ele>91.9</ele>
        <time>2017-05-28T09:46:05Z</time>
      </trkpt>
      <trkpt lat="49.2361" lon="-0.0159">
        <ele>91.6</ele>
        <time>2017-05-28T09:46:12Z</time>
      </trkpt>
      <trkpt lat="49.23614" lon="-0.016">
        <ele>93.1</ele>
        <time>2017-05-28T09:46:18Z</time>
      </trkpt>
      <trkpt lat="49.23623" lon="-0.01612">
        <ele>95.6</ele>
        <time>2017-05-28T09:46:24Z</time>
      </trkpt>
      <trkpt lat="49.23628" lon="-0.01621">
        <ele>99</ele>
        <time>2017-05-28T09:46:30Z</time>
      </trkpt>
      <trkpt lat="49.23637" lon="-0.01631">
        <ele>94.1</ele>
        <time>2017-05-28T09:48:00Z</time>
      </trkpt>
      <trkpt lat="49.2364" lon="-0.01635">
        <ele>94.8</ele>
        <time>2017-05-28T09:48:11Z</time>
      </trkpt>
      <trkpt lat="49.23644" lon="-0.01641">
        <ele>95.6</ele>
        <time>2017-05-28T09:48:27Z</time>
      </trkpt>
      <trkpt lat="49.23658" lon="-0.01663">
        <ele>89</ele>
        <time>2017-05-28T09:49:21Z</time>
      </trkpt>
      <trkpt lat="49.23659" lon="-0.01664">
        <ele>89.1</ele>
        <time>2017-05-28T09:49:28Z</time>
      </trkpt>
      <trkpt lat="49.23663" lon="-0.01671">
        <ele>95.5</ele>
        <time>2017-05-28T09:49:37Z</time>
      </trkpt>
      <trkpt lat="49.23669" lon="-0.01677">
        <ele>89.9</ele>
        <time>2017-05-28T09:50:04Z</time>
      </trkpt>
      <trkpt lat="49.23669" lon="-0.01678">
        <ele>88.3</ele>
        <time>2017-05-28T09:50:12Z</time>
      </trkpt>
      <trkpt lat="49.2368" lon="-0.01693">
        <ele>81.8</ele>
        <time>2017-05-28T09:50:44Z</time>
      </trkpt>
      <trkpt lat="49.23682" lon="-0.01699">
        <ele>84.4</ele>
        <time>2017-05-28T09:50:59Z</time>
      </trkpt>
      <trkpt lat="49.2372" lon="-0.01768">
        <ele>75.8</ele>
        <time>2017-05-28T09:56:57Z</time>
      </trkpt>
      <trkpt lat="49.23733" lon="-0.01787">
        <ele>72.5</ele>
        <time>2017-05-28T09:58:50Z</time>
      </trkpt>
      <trkpt lat="49.23737" lon="-0.01789">
        <ele>72.6</ele>
        <time>2017-05-28T09:58:57Z</time>
      </trkpt>
      <trkpt lat="49.23741" lon="-0.01794">
        <ele>72.9</ele>
        <time>2017-05-28T09:59:04Z</time>
      </trkpt>
      <trkpt lat="49.23749" lon="-0.01807">
        <ele>68.6</ele>
        <time>2017-05-28T09:59:41Z</time>
      </trkpt>
      <trkpt lat="49.23755" lon="-0.01814">
        <ele>72.1</ele>
        <time>2017-05-28T10:00:04Z</time>
      </trkpt>
      <trkpt lat="49.23758" lon="-0.01818">
        <ele>74.7</ele>
        <time>2017-05-28T10:00:11Z</time>
      </trkpt>
      <trkpt lat="49.23757" lon="-0.01818">
        <ele>71.4</ele>
        <time>2017-05-28T10:00:18Z</time>
      </trkpt>
      <trkpt lat="49.23762" lon="-0.01844">
        <ele>66.8</ele>
        <time>2017-05-28T10:06:26Z</time>
      </trkpt>
      <trkpt lat="49.23757" lon="-0.01852">
        <ele>66.4</ele>
        <time>2017-05-28T10:06:33Z</time>
      </trkpt>
      <trkpt lat="49.23752" lon="-0.01862">
        <ele>66.1</ele>
        <time>2017-05-28T10:06:40Z</time>
      </trkpt>
      <trkpt lat="49.23752" lon="-0.01872">
        <ele>64.1</ele>
        <time>2017-05-28T10:06:47Z</time>
      </trkpt>
      <trkpt lat="49.23753" lon="-0.01883">
        <ele>62.9</ele>
        <time>2017-05-28T10:06:53Z</time>
      </trkpt>
      <trkpt lat="49.23759" lon="-0.01892">
        <ele>63.7</ele>
        <time>2017-05-28T10:07:00Z</time>
      </trkpt>
      <trkpt lat="49.23765" lon="-0.01899">
        <ele>62.3</ele>
        <time>2017-05-28T10:07:07Z</time>
      </trkpt>
      <trkpt lat="49.23771" lon="-0.01905">
        <ele>61.2</ele>
        <time>2017-05-28T10:07:14Z</time>
      </trkpt>
      <trkpt lat="49.23776" lon="-0.01906">
        <ele>58.7</ele>
        <time>2017-05-28T10:07:21Z</time>
      </trkpt>
      <trkpt lat="49.23779" lon="-0.01906">
        <ele>56.9</ele>
        <time>2017-05-28T10:07:28Z</time>
      </trkpt>
      <trkpt lat="49.23784" lon="-0.01911">
        <ele>55.4</ele>
        <time>2017-05-28T10:07:35Z</time>
      </trkpt>
      <trkpt lat="49.23791" lon="-0.01915">
        <ele>52.1</ele>
        <time>2017-05-28T10:07:41Z</time>
      </trkpt>
      <trkpt lat="49.23797" lon="-0.01919">
        <ele>47.4</ele>
        <time>2017-05-28T10:07:48Z</time>
      </trkpt>
      <trkpt lat="49.23803" lon="-0.01924">
        <ele>43.9</ele>
        <time>2017-05-28T10:07:55Z</time>
      </trkpt>
      <trkpt lat="49.23808" lon="-0.01928">
        <ele>40.7</ele>
        <time>2017-05-28T10:08:02Z</time>
      </trkpt>
      <trkpt lat="49.2381" lon="-0.01929">
        <ele>36.7</ele>
        <time>2017-05-28T10:08:09Z</time>
      </trkpt>
      <trkpt lat="49.23814" lon="-0.01929">
        <ele>34</ele>
        <time>2017-05-28T10:08:16Z</time>
      </trkpt>
      <trkpt lat="49.2383" lon="-0.01926">
        <ele>45.8</ele>
        <time>2017-05-28T10:10:31Z</time>
      </trkpt>
      <trkpt lat="49.23835" lon="-0.01926">
        <ele>46.2</ele>
        <time>2017-05-28T10:10:38Z</time>
      </trkpt>
      <trkpt lat="49.2384" lon="-0.01926">
        <ele>47.2</ele>
        <time>2017-05-28T10:10:45Z</time>
      </trkpt>
      <trkpt lat="49.23847" lon="-0.01926">
        <ele>44.8</ele>
        <time>2017-05-28T10:10:52Z</time>
      </trkpt>
      <trkpt lat="49.23852" lon="-0.01926">
        <ele>44.2</ele>
        <time>2017-05-28T10:10:59Z</time>
      </trkpt>
      <trkpt lat="49.23858" lon="-0.01924">
        <ele>41</ele>
        <time>2017-05-28T10:11:06Z</time>
      </trkpt>
      <trkpt lat="49.23865" lon="-0.01923">
        <ele>40.8</ele>
        <time>2017-05-28T10:11:13Z</time>
      </trkpt>
      <trkpt lat="49.23873" lon="-0.01926">
        <ele>41.7</ele>
        <time>2017-05-28T10:11:20Z</time>
      </trkpt>
      <trkpt lat="49.23879" lon="-0.01931">
        <ele>42.3</ele>
        <time>2017-05-28T10:11:27Z</time>
      </trkpt>
      <trkpt lat="49.23886" lon="-0.01937">
        <ele>41</ele>
        <time>2017-05-28T10:11:34Z</time>
      </trkpt>
      <trkpt lat="49.2389" lon="-0.0194">
        <ele>40.6</ele>
        <time>2017-05-28T10:11:41Z</time>
      </trkpt>
      <trkpt lat="49.23893" lon="-0.01942">
        <ele>40.8</ele>
        <time>2017-05-28T10:11:48Z</time>
      </trkpt>
      <trkpt lat="49.23897" lon="-0.01947">
        <ele>39.5</ele>
        <time>2017-05-28T10:11:55Z</time>
      </trkpt>
      <trkpt lat="49.23902" lon="-0.01955">
        <ele>37.2</ele>
        <time>2017-05-28T10:12:02Z</time>
      </trkpt>
      <trkpt lat="49.23904" lon="-0.01957">
        <ele>36.2</ele>
        <time>2017-05-28T10:12:09Z</time>
      </trkpt>
      <trkpt lat="49.2391" lon="-0.01964">
        <ele>34.8</ele>
        <time>2017-05-28T10:12:23Z</time>
      </trkpt>
      <trkpt lat="49.23914" lon="-0.01968">
        <ele>37.9</ele>
        <time>2017-05-28T10:12:30Z</time>
      </trkpt>
      <trkpt lat="49.23919" lon="-0.01976">
        <ele>40.8</ele>
        <time>2017-05-28T10:12:37Z</time>
      </trkpt>
      <trkpt lat="49.23925" lon="-0.01985">
        <ele>43.9</ele>
        <time>2017-05-28T10:12:44Z</time>
      </trkpt>
      <trkpt lat="49.23928" lon="-0.01988">
        <ele>41.2</ele>
        <time>2017-05-28T10:12:51Z</time>
      </trkpt>
      <trkpt lat="49.2393" lon="-0.01989">
        <ele>39.4</ele>
        <time>2017-05-28T10:12:58Z</time>
      </trkpt>
      <trkpt lat="49.23939" lon="-0.01992">
        <ele>40.4</ele>
        <time>2017-05-28T10:18:51Z</time>
      </trkpt>
      <trkpt lat="49.23944" lon="-0.01987">
        <ele>39.2</ele>
        <time>2017-05-28T10:18:58Z</time>
      </trkpt>
      <trkpt lat="49.23949" lon="-0.01981">
        <ele>37.2</ele>
        <time>2017-05-28T10:19:05Z</time>
      </trkpt>
      <trkpt lat="49.23953" lon="-0.01975">
        <ele>36.6</ele>
        <time>2017-05-28T10:19:12Z</time>
      </trkpt>
      <trkpt lat="49.23959" lon="-0.01969">
        <ele>37</ele>
        <time>2017-05-28T10:19:19Z</time>
      </trkpt>
      <trkpt lat="49.23966" lon="-0.01964">
        <ele>37.6</ele>
        <time>2017-05-28T10:19:25Z</time>
      </trkpt>
      <trkpt lat="49.23972" lon="-0.01959">
        <ele>37</ele>
        <time>2017-05-28T10:19:32Z</time>
      </trkpt>
      <trkpt lat="49.23979" lon="-0.01953">
        <ele>36.8</ele>
        <time>2017-05-28T10:19:39Z</time>
      </trkpt>
      <trkpt lat="49.23984" lon="-0.01953">
        <ele>35.4</ele>
        <time>2017-05-28T10:19:46Z</time>
      </trkpt>
      <trkpt lat="49.23987" lon="-0.01945">
        <ele>34.9</ele>
        <time>2017-05-28T10:20:02Z</time>
      </trkpt>
      <trkpt lat="49.23993" lon="-0.01938">
        <ele>34.7</ele>
        <time>2017-05-28T10:20:08Z</time>
      </trkpt>
      <trkpt lat="49.23999" lon="-0.01933">
        <ele>35.9</ele>
        <time>2017-05-28T10:20:15Z</time>
      </trkpt>
      <trkpt lat="49.24004" lon="-0.01926">
        <ele>34.5</ele>
        <time>2017-05-28T10:20:22Z</time>
      </trkpt>
      <trkpt lat="49.2401" lon="-0.01919">
        <ele>31.9</ele>
        <time>2017-05-28T10:20:29Z</time>
      </trkpt>
      <trkpt lat="49.24016" lon="-0.01911">
        <ele>27.4</ele>
        <time>2017-05-28T10:20:36Z</time>
      </trkpt>
      <trkpt lat="49.24025" lon="-0.01907">
        <ele>29.6</ele>
        <time>2017-05-28T10:20:42Z</time>
      </trkpt>
      <trkpt lat="49.24034" lon="-0.01907">
        <ele>32.4</ele>
        <time>2017-05-28T10:20:47Z</time>
      </trkpt>
      <trkpt lat="49.24041" lon="-0.01912">
        <ele>31.1</ele>
        <time>2017-05-28T10:20:53Z</time>
      </trkpt>
      <trkpt lat="49.24046" lon="-0.01915">
        <ele>29</ele>
        <time>2017-05-28T10:21:00Z</time>
      </trkpt>
      <trkpt lat="49.24053" lon="-0.01921">
        <ele>28</ele>
        <time>2017-05-28T10:21:07Z</time>
      </trkpt>
      <trkpt lat="49.2406" lon="-0.01926">
        <ele>26.9</ele>
        <time>2017-05-28T10:21:12Z</time>
      </trkpt>
      <trkpt lat="49.24067" lon="-0.01931">
        <ele>24.7</ele>
        <time>2017-05-28T10:21:18Z</time>
      </trkpt>
      <trkpt lat="49.24075" lon="-0.01935">
        <ele>25.6</ele>
        <time>2017-05-28T10:21:23Z</time>
      </trkpt>
      <trkpt lat="49.24082" lon="-0.01939">
        <ele>25.9</ele>
        <time>2017-05-28T10:21:28Z</time>
      </trkpt>
      <trkpt lat="49.24089" lon="-0.01942">
        <ele>24.5</ele>
        <time>2017-05-28T10:21:35Z</time>
      </trkpt>
      <trkpt lat="49.24093" lon="-0.01944">
        <ele>23.6</ele>
        <time>2017-05-28T10:21:42Z</time>
      </trkpt>
      <trkpt lat="49.24099" lon="-0.01946">
        <ele>24</ele>
        <time>2017-05-28T10:21:49Z</time>
      </trkpt>
      <trkpt lat="49.24104" lon="-0.01948">
        <ele>24.9</ele>
        <time>2017-05-28T10:21:56Z</time>
      </trkpt>
      <trkpt lat="49.24109" lon="-0.01949">
        <ele>25.5</ele>
        <time>2017-05-28T10:22:03Z</time>
      </trkpt>
      <trkpt lat="49.24113" lon="-0.0195">
        <ele>27.3</ele>
        <time>2017-05-28T10:22:10Z</time>
      </trkpt>
      <trkpt lat="49.24118" lon="-0.0195">
        <ele>27.5</ele>
        <time>2017-05-28T10:22:28Z</time>
      </trkpt>
      <trkpt lat="49.24118" lon="-0.01954">
        <ele>26.4</ele>
        <time>2017-05-28T10:22:41Z</time>
      </trkpt>
      <trkpt lat="49.24119" lon="-0.01962">
        <ele>26.3</ele>
        <time>2017-05-28T10:22:14Z</time>
      </trkpt>
      <trkpt lat="49.24116" lon="-0.01973">
        <ele>26</ele>
        <time>2017-05-28T10:23:27Z</time>
      </trkpt>
      <trkpt lat="49.24112" lon="-0.01982">
        <ele>26.8</ele>
        <time>2017-05-28T10:23:34Z</time>
      </trkpt>
      <trkpt lat="49.24109" lon="-0.01992">
        <ele>29.7</ele>
        <time>2017-05-28T10:23:41Z</time>
      </trkpt>
      <trkpt lat="49.24106" lon="-0.02002">
        <ele>31.2</ele>
        <time>2017-05-28T10:23:48Z</time>
      </trkpt>
      <trkpt lat="49.24105" lon="-0.02011">
        <ele>31.6</ele>
        <time>2017-05-28T10:23:55Z</time>
      </trkpt>
      <trkpt lat="49.24101" lon="-0.02018">
        <ele>30.7</ele>
        <time>2017-05-28T10:24:02Z</time>
      </trkpt>
      <trkpt lat="49.24099" lon="-0.02028">
        <ele>30.1</ele>
        <time>2017-05-28T10:24:09Z</time>
      </trkpt>
      <trkpt lat="49.24096" lon="-0.02038">
        <ele>29.2</ele>
        <time>2017-05-28T10:24:16Z</time>
      </trkpt>
      <trkpt lat="49.24093" lon="-0.02047">
        <ele>27.9</ele>
        <time>2017-05-28T10:24:23Z</time>
      </trkpt>
      <trkpt lat="49.2409" lon="-0.02058">
        <ele>27.1</ele>
        <time>2017-05-28T10:24:30Z</time>
      </trkpt>
      <trkpt lat="49.24086" lon="-0.02069">
        <ele>26.8</ele>
        <time>2017-05-28T10:24:36Z</time>
      </trkpt>
      <trkpt lat="49.24082" lon="-0.0208">
        <ele>26.4</ele>
        <time>2017-05-28T10:24:43Z</time>
      </trkpt>
      <trkpt lat="49.24078" lon="-0.02091">
        <ele>26.4</ele>
        <time>2017-05-28T10:24:50Z</time>
      </trkpt>
      <trkpt lat="49.24075" lon="-0.02101">
        <ele>25.3</ele>
        <time>2017-05-28T10:24:56Z</time>
      </trkpt>
      <trkpt lat="49.24072" lon="-0.02112">
        <ele>24.7</ele>
        <time>2017-05-28T10:25:01Z</time>
      </trkpt>
      <trkpt lat="49.24069" lon="-0.02122">
        <ele>22.7</ele>
        <time>2017-05-28T10:25:08Z</time>
      </trkpt>
      <trkpt lat="49.24065" lon="-0.02133">
        <ele>22.3</ele>
        <time>2017-05-28T10:25:15Z</time>
      </trkpt>
      <trkpt lat="49.24062" lon="-0.02144">
        <ele>21.2</ele>
        <time>2017-05-28T10:25:21Z</time>
      </trkpt>
      <trkpt lat="49.24058" lon="-0.02154">
        <ele>19.6</ele>
        <time>2017-05-28T10:25:26Z</time>
      </trkpt>
      <trkpt lat="49.24055" lon="-0.02164">
        <ele>19.1</ele>
        <time>2017-05-28T10:25:32Z</time>
      </trkpt>
      <trkpt lat="49.24051" lon="-0.02175">
        <ele>18.3</ele>
        <time>2017-05-28T10:25:39Z</time>
      </trkpt>
      <trkpt lat="49.24047" lon="-0.02185">
        <ele>18.4</ele>
        <time>2017-05-28T10:25:46Z</time>
      </trkpt>
      <trkpt lat="49.24045" lon="-0.02195">
        <ele>18.2</ele>
        <time>2017-05-28T10:25:53Z</time>
      </trkpt>
      <trkpt lat="49.2404" lon="-0.02205">
        <ele>18.7</ele>
        <time>2017-05-28T10:26:00Z</time>
      </trkpt>
      <trkpt lat="49.24037" lon="-0.02214">
        <ele>19.2</ele>
        <time>2017-05-28T10:26:07Z</time>
      </trkpt>
      <trkpt lat="49.24033" lon="-0.02223">
        <ele>20.9</ele>
        <time>2017-05-28T10:26:12Z</time>
      </trkpt>
      <trkpt lat="49.24029" lon="-0.02233">
        <ele>23.4</ele>
        <time>2017-05-28T10:26:18Z</time>
      </trkpt>
      <trkpt lat="49.24025" lon="-0.02242">
        <ele>24.4</ele>
        <time>2017-05-28T10:26:25Z</time>
      </trkpt>
      <trkpt lat="49.24021" lon="-0.02249">
        <ele>25.2</ele>
        <time>2017-05-28T10:26:32Z</time>
      </trkpt>
      <trkpt lat="49.24018" lon="-0.02258">
        <ele>25.2</ele>
        <time>2017-05-28T10:26:39Z</time>
      </trkpt>
      <trkpt lat="49.24015" lon="-0.02268">
        <ele>24.7</ele>
        <time>2017-05-28T10:26:45Z</time>
      </trkpt>
      <trkpt lat="49.24011" lon="-0.02278">
        <ele>23.7</ele>
        <time>2017-05-28T10:26:50Z</time>
      </trkpt>
      <trkpt lat="49.24007" lon="-0.0229">
        <ele>23.1</ele>
        <time>2017-05-28T10:26:57Z</time>
      </trkpt>
      <trkpt lat="49.24004" lon="-0.02301">
        <ele>21.5</ele>
        <time>2017-05-28T10:27:04Z</time>
      </trkpt>
      <trkpt lat="49.24" lon="-0.02313">
        <ele>20.6</ele>
        <time>2017-05-28T10:27:10Z</time>
      </trkpt>
      <trkpt lat="49.23997" lon="-0.02323">
        <ele>19.8</ele>
        <time>2017-05-28T10:27:16Z</time>
      </trkpt>
      <trkpt lat="49.23995" lon="-0.02334">
        <ele>19.6</ele>
        <time>2017-05-28T10:27:22Z</time>
      </trkpt>
      <trkpt lat="49.23992" lon="-0.02345">
        <ele>19.8</ele>
        <time>2017-05-28T10:27:28Z</time>
      </trkpt>
      <trkpt lat="49.23987" lon="-0.02354">
        <ele>20.4</ele>
        <time>2017-05-28T10:27:34Z</time>
      </trkpt>
      <trkpt lat="49.23983" lon="-0.02365">
        <ele>21.7</ele>
        <time>2017-05-28T10:27:40Z</time>
      </trkpt>
      <trkpt lat="49.2398" lon="-0.02375">
        <ele>22.3</ele>
        <time>2017-05-28T10:27:46Z</time>
      </trkpt>
      <trkpt lat="49.23976" lon="-0.02386">
        <ele>24</ele>
        <time>2017-05-28T10:27:53Z</time>
      </trkpt>
      <trkpt lat="49.23972" lon="-0.02398">
        <ele>24.6</ele>
        <time>2017-05-28T10:27:59Z</time>
      </trkpt>
      <trkpt lat="49.23967" lon="-0.02408">
        <ele>25.6</ele>
        <time>2017-05-28T10:28:05Z</time>
      </trkpt>
      <trkpt lat="49.23963" lon="-0.0242">
        <ele>26.8</ele>
        <time>2017-05-28T10:28:11Z</time>
      </trkpt>
      <trkpt lat="49.23959" lon="-0.0243">
        <ele>27.1</ele>
        <time>2017-05-28T10:28:16Z</time>
      </trkpt>
      <trkpt lat="49.23955" lon="-0.02439">
        <ele>26.6</ele>
        <time>2017-05-28T10:28:22Z</time>
      </trkpt>
      <trkpt lat="49.23951" lon="-0.0245">
        <ele>27.3</ele>
        <time>2017-05-28T10:28:28Z</time>
      </trkpt>
      <trkpt lat="49.23948" lon="-0.0246">
        <ele>26.4</ele>
        <time>2017-05-28T10:28:34Z</time>
      </trkpt>
      <trkpt lat="49.23945" lon="-0.02472">
        <ele>24.9</ele>
        <time>2017-05-28T10:28:40Z</time>
      </trkpt>
      <trkpt lat="49.2394" lon="-0.02481">
        <ele>26.9</ele>
        <time>2017-05-28T10:28:46Z</time>
      </trkpt>
      <trkpt lat="49.23937" lon="-0.02493">
        <ele>27.3</ele>
        <time>2017-05-28T10:28:52Z</time>
      </trkpt>
      <trkpt lat="49.23933" lon="-0.02503">
        <ele>27.5</ele>
        <time>2017-05-28T10:28:57Z</time>
      </trkpt>
      <trkpt lat="49.23928" lon="-0.02513">
        <ele>27.4</ele>
        <time>2017-05-28T10:29:02Z</time>
      </trkpt>
      <trkpt lat="49.23923" lon="-0.02523">
        <ele>28.4</ele>
        <time>2017-05-28T10:29:07Z</time>
      </trkpt>
      <trkpt lat="49.2392" lon="-0.02533">
        <ele>28.9</ele>
        <time>2017-05-28T10:29:12Z</time>
      </trkpt>
      <trkpt lat="49.23917" lon="-0.02543">
        <ele>28.5</ele>
        <time>2017-05-28T10:29:17Z</time>
      </trkpt>
      <trkpt lat="49.23913" lon="-0.02555">
        <ele>28.9</ele>
        <time>2017-05-28T10:29:22Z</time>
      </trkpt>
      <trkpt lat="49.2391" lon="-0.02565">
        <ele>29</ele>
        <time>2017-05-28T10:29:27Z</time>
      </trkpt>
      <trkpt lat="49.23906" lon="-0.02576">
        <ele>29.9</ele>
        <time>2017-05-28T10:29:32Z</time>
      </trkpt>
      <trkpt lat="49.23902" lon="-0.02586">
        <ele>30.3</ele>
        <time>2017-05-28T10:29:37Z</time>
      </trkpt>
      <trkpt lat="49.23897" lon="-0.02597">
        <ele>28.6</ele>
        <time>2017-05-28T10:29:44Z</time>
      </trkpt>
      <trkpt lat="49.23894" lon="-0.02608">
        <ele>27.1</ele>
        <time>2017-05-28T10:29:50Z</time>
      </trkpt>
      <trkpt lat="49.2389" lon="-0.02619">
        <ele>27</ele>
        <time>2017-05-28T10:29:56Z</time>
      </trkpt>
      <trkpt lat="49.23887" lon="-0.0263">
        <ele>26.6</ele>
        <time>2017-05-28T10:30:01Z</time>
      </trkpt>
      <trkpt lat="49.23883" lon="-0.02641">
        <ele>27.4</ele>
        <time>2017-05-28T10:30:06Z</time>
      </trkpt>
      <trkpt lat="49.2388" lon="-0.02651">
        <ele>28.8</ele>
        <time>2017-05-28T10:30:11Z</time>
      </trkpt>
      <trkpt lat="49.23876" lon="-0.02662">
        <ele>30.1</ele>
        <time>2017-05-28T10:30:15Z</time>
      </trkpt>
      <trkpt lat="49.23872" lon="-0.02673">
        <ele>32</ele>
        <time>2017-05-28T10:30:20Z</time>
      </trkpt>
      <trkpt lat="49.23869" lon="-0.02684">
        <ele>32.8</ele>
        <time>2017-05-28T10:30:25Z</time>
      </trkpt>
      <trkpt lat="49.23866" lon="-0.02696">
        <ele>33.8</ele>
        <time>2017-05-28T10:30:31Z</time>
      </trkpt>
      <trkpt lat="49.23863" lon="-0.02708">
        <ele>36.6</ele>
        <time>2017-05-28T10:30:36Z</time>
      </trkpt>
      <trkpt lat="49.2386" lon="-0.02718">
        <ele>37.7</ele>
        <time>2017-05-28T10:30:40Z</time>
      </trkpt>
      <trkpt lat="49.23856" lon="-0.0273">
        <ele>36.7</ele>
        <time>2017-05-28T10:30:45Z</time>
      </trkpt>
      <trkpt lat="49.23852" lon="-0.02741">
        <ele>38.3</ele>
        <time>2017-05-28T10:30:50Z</time>
      </trkpt>
      <trkpt lat="49.23848" lon="-0.02751">
        <ele>37.6</ele>
        <time>2017-05-28T10:30:55Z</time>
      </trkpt>
      <trkpt lat="49.23844" lon="-0.02762">
        <ele>37.8</ele>
        <time>2017-05-28T10:31:00Z</time>
      </trkpt>
      <trkpt lat="49.23841" lon="-0.02773">
        <ele>36.9</ele>
        <time>2017-05-28T10:31:05Z</time>
      </trkpt>
      <trkpt lat="49.23837" lon="-0.02784">
        <ele>35.5</ele>
        <time>2017-05-28T10:31:10Z</time>
      </trkpt>
      <trkpt lat="49.23833" lon="-0.02796">
        <ele>36.5</ele>
        <time>2017-05-28T10:31:15Z</time>
      </trkpt>
      <trkpt lat="49.2383" lon="-0.02806">
        <ele>38.5</ele>
        <time>2017-05-28T10:31:19Z</time>
      </trkpt>
      <trkpt lat="49.23827" lon="-0.02817">
        <ele>39.6</ele>
        <time>2017-05-28T10:31:24Z</time>
      </trkpt>
      <trkpt lat="49.23824" lon="-0.02827">
        <ele>36.4</ele>
        <time>2017-05-28T10:31:30Z</time>
      </trkpt>
      <trkpt lat="49.2382" lon="-0.02838">
        <ele>35.7</ele>
        <time>2017-05-28T10:31:37Z</time>
      </trkpt>
      <trkpt lat="49.23817" lon="-0.02848">
        <ele>36.3</ele>
        <time>2017-05-28T10:31:43Z</time>
      </trkpt>
      <trkpt lat="49.23812" lon="-0.02858">
        <ele>34.8</ele>
        <time>2017-05-28T10:31:49Z</time>
      </trkpt>
      <trkpt lat="49.23807" lon="-0.02868">
        <ele>33.4</ele>
        <time>2017-05-28T10:31:55Z</time>
      </trkpt>
      <trkpt lat="49.23804" lon="-0.02878">
        <ele>32.3</ele>
        <time>2017-05-28T10:32:02Z</time>
      </trkpt>
      <trkpt lat="49.238" lon="-0.02887">
        <ele>31.1</ele>
        <time>2017-05-28T10:32:09Z</time>
      </trkpt>
      <trkpt lat="49.23796" lon="-0.02897">
        <ele>30.9</ele>
        <time>2017-05-28T10:32:15Z</time>
      </trkpt>
      <trkpt lat="49.23792" lon="-0.02908">
        <ele>30.7</ele>
        <time>2017-05-28T10:32:21Z</time>
      </trkpt>
      <trkpt lat="49.23788" lon="-0.02919">
        <ele>30.4</ele>
        <time>2017-05-28T10:32:27Z</time>
      </trkpt>
      <trkpt lat="49.23783" lon="-0.02929">
        <ele>28.7</ele>
        <time>2017-05-28T10:32:33Z</time>
      </trkpt>
      <trkpt lat="49.23779" lon="-0.02939">
        <ele>28.7</ele>
        <time>2017-05-28T10:32:39Z</time>
      </trkpt>
      <trkpt lat="49.23774" lon="-0.02949">
        <ele>28.9</ele>
        <time>2017-05-28T10:32:44Z</time>
      </trkpt>
      <trkpt lat="49.23773" lon="-0.02956">
        <ele>31.3</ele>
        <time>2017-05-28T10:32:51Z</time>
      </trkpt>
      <trkpt lat="49.2377" lon="-0.02967">
        <ele>35.5</ele>
        <time>2017-05-28T10:32:58Z</time>
      </trkpt>
      <trkpt lat="49.23766" lon="-0.02978">
        <ele>34.4</ele>
        <time>2017-05-28T10:33:04Z</time>
      </trkpt>
      <trkpt lat="49.23762" lon="-0.02988">
        <ele>35.1</ele>
        <time>2017-05-28T10:33:10Z</time>
      </trkpt>
      <trkpt lat="49.23758" lon="-0.02998">
        <ele>33.8</ele>
        <time>2017-05-28T10:33:16Z</time>
      </trkpt>
      <trkpt lat="49.23754" lon="-0.0301">
        <ele>32.7</ele>
        <time>2017-05-28T10:33:21Z</time>
      </trkpt>
      <trkpt lat="49.2375" lon="-0.0302">
        <ele>34.3</ele>
        <time>2017-05-28T10:33:28Z</time>
      </trkpt>
      <trkpt lat="49.23746" lon="-0.0303">
        <ele>35.2</ele>
        <time>2017-05-28T10:33:34Z</time>
      </trkpt>
      <trkpt lat="49.23743" lon="-0.03041">
        <ele>34.4</ele>
        <time>2017-05-28T10:33:40Z</time>
      </trkpt>
      <trkpt lat="49.23739" lon="-0.0305">
        <ele>34.9</ele>
        <time>2017-05-28T10:33:45Z</time>
      </trkpt>
      <trkpt lat="49.23735" lon="-0.03061">
        <ele>34.5</ele>
        <time>2017-05-28T10:33:51Z</time>
      </trkpt>
      <trkpt lat="49.23732" lon="-0.03072">
        <ele>35.5</ele>
        <time>2017-05-28T10:33:56Z</time>
      </trkpt>
      <trkpt lat="49.23728" lon="-0.03083">
        <ele>36.1</ele>
        <time>2017-05-28T10:34:02Z</time>
      </trkpt>
      <trkpt lat="49.23725" lon="-0.03094">
        <ele>35.4</ele>
        <time>2017-05-28T10:34:08Z</time>
      </trkpt>
      <trkpt lat="49.23722" lon="-0.03105">
        <ele>33.7</ele>
        <time>2017-05-28T10:34:13Z</time>
      </trkpt>
      <trkpt lat="49.23718" lon="-0.03116">
        <ele>32.7</ele>
        <time>2017-05-28T10:34:19Z</time>
      </trkpt>
      <trkpt lat="49.23714" lon="-0.03126">
        <ele>33.4</ele>
        <time>2017-05-28T10:34:26Z</time>
      </trkpt>
      <trkpt lat="49.2371" lon="-0.03137">
        <ele>32.9</ele>
        <time>2017-05-28T10:34:32Z</time>
      </trkpt>
      <trkpt lat="49.23707" lon="-0.03145">
        <ele>31.5</ele>
        <time>2017-05-28T10:34:39Z</time>
      </trkpt>
      <trkpt lat="49.23702" lon="-0.03152">
        <ele>35.8</ele>
        <time>2017-05-28T10:35:50Z</time>
      </trkpt>
      <trkpt lat="49.23702" lon="-0.03163">
        <ele>43.9</ele>
        <time>2017-05-28T10:38:18Z</time>
      </trkpt>
      <trkpt lat="49.23699" lon="-0.03174">
        <ele>44.2</ele>
        <time>2017-05-28T10:38:22Z</time>
      </trkpt>
      <trkpt lat="49.23696" lon="-0.03186">
        <ele>44.1</ele>
        <time>2017-05-28T10:38:28Z</time>
      </trkpt>
      <trkpt lat="49.23691" lon="-0.03196">
        <ele>44.5</ele>
        <time>2017-05-28T10:38:33Z</time>
      </trkpt>
      <trkpt lat="49.23688" lon="-0.03206">
        <ele>44</ele>
        <time>2017-05-28T10:38:39Z</time>
      </trkpt>
      <trkpt lat="49.23684" lon="-0.03216">
        <ele>45</ele>
        <time>2017-05-28T10:38:45Z</time>
      </trkpt>
      <trkpt lat="49.2368" lon="-0.03227">
        <ele>45.7</ele>
        <time>2017-05-28T10:38:51Z</time>
      </trkpt>
      <trkpt lat="49.23676" lon="-0.03238">
        <ele>44.6</ele>
        <time>2017-05-28T10:38:57Z</time>
      </trkpt>
      <trkpt lat="49.23672" lon="-0.03247">
        <ele>44.4</ele>
        <time>2017-05-28T10:39:02Z</time>
      </trkpt>
      <trkpt lat="49.23669" lon="-0.03258">
        <ele>44.1</ele>
        <time>2017-05-28T10:39:08Z</time>
      </trkpt>
      <trkpt lat="49.23667" lon="-0.03266">
        <ele>44.4</ele>
        <time>2017-05-28T10:39:15Z</time>
      </trkpt>
      <trkpt lat="49.23662" lon="-0.03276">
        <ele>43</ele>
        <time>2017-05-28T10:39:21Z</time>
      </trkpt>
      <trkpt lat="49.23659" lon="-0.03285">
        <ele>41.5</ele>
        <time>2017-05-28T10:39:27Z</time>
      </trkpt>
      <trkpt lat="49.23654" lon="-0.03294">
        <ele>38.4</ele>
        <time>2017-05-28T10:39:33Z</time>
      </trkpt>
      <trkpt lat="49.23648" lon="-0.03304">
        <ele>36.1</ele>
        <time>2017-05-28T10:39:39Z</time>
      </trkpt>
      <trkpt lat="49.23644" lon="-0.03314">
        <ele>36.2</ele>
        <time>2017-05-28T10:39:45Z</time>
      </trkpt>
      <trkpt lat="49.23639" lon="-0.03322">
        <ele>33.7</ele>
        <time>2017-05-28T10:39:52Z</time>
      </trkpt>
      <trkpt lat="49.23635" lon="-0.03331">
        <ele>32.9</ele>
        <time>2017-05-28T10:39:58Z</time>
      </trkpt>
      <trkpt lat="49.2363" lon="-0.03342">
        <ele>32.3</ele>
        <time>2017-05-28T10:40:04Z</time>
      </trkpt>
      <trkpt lat="49.23626" lon="-0.03352">
        <ele>33.1</ele>
        <time>2017-05-28T10:40:09Z</time>
      </trkpt>
      <trkpt lat="49.23621" lon="-0.03362">
        <ele>33.2</ele>
        <time>2017-05-28T10:40:16Z</time>
      </trkpt>
      <trkpt lat="49.23617" lon="-0.0337">
        <ele>33.2</ele>
        <time>2017-05-28T10:40:22Z</time>
      </trkpt>
      <trkpt lat="49.23613" lon="-0.03383">
        <ele>37.1</ele>
        <time>2017-05-28T10:40:28Z</time>
      </trkpt>
      <trkpt lat="49.23608" lon="-0.03394">
        <ele>37.4</ele>
        <time>2017-05-28T10:40:33Z</time>
      </trkpt>
      <trkpt lat="49.23603" lon="-0.03403">
        <ele>37.1</ele>
        <time>2017-05-28T10:40:37Z</time>
      </trkpt>
      <trkpt lat="49.23599" lon="-0.03411">
        <ele>36.9</ele>
        <time>2017-05-28T10:40:42Z</time>
      </trkpt>
      <trkpt lat="49.23594" lon="-0.0342">
        <ele>35.8</ele>
        <time>2017-05-28T10:40:48Z</time>
      </trkpt>
      <trkpt lat="49.2359" lon="-0.03429">
        <ele>33.7</ele>
        <time>2017-05-28T10:40:55Z</time>
      </trkpt>
      <trkpt lat="49.23585" lon="-0.03439">
        <ele>33</ele>
        <time>2017-05-28T10:41:00Z</time>
      </trkpt>
      <trkpt lat="49.2358" lon="-0.03449">
        <ele>28.8</ele>
        <time>2017-05-28T10:41:06Z</time>
      </trkpt>
      <trkpt lat="49.23574" lon="-0.03458">
        <ele>26.7</ele>
        <time>2017-05-28T10:41:11Z</time>
      </trkpt>
      <trkpt lat="49.23569" lon="-0.03467">
        <ele>24.9</ele>
        <time>2017-05-28T10:41:16Z</time>
      </trkpt>
      <trkpt lat="49.23563" lon="-0.03476">
        <ele>23.1</ele>
        <time>2017-05-28T10:41:23Z</time>
      </trkpt>
      <trkpt lat="49.23559" lon="-0.03485">
        <ele>21.4</ele>
        <time>2017-05-28T10:41:29Z</time>
      </trkpt>
      <trkpt lat="49.23553" lon="-0.03493">
        <ele>23</ele>
        <time>2017-05-28T10:41:34Z</time>
      </trkpt>
      <trkpt lat="49.23547" lon="-0.03503">
        <ele>22.6</ele>
        <time>2017-05-28T10:41:39Z</time>
      </trkpt>
      <trkpt lat="49.23542" lon="-0.03512">
        <ele>20.8</ele>
        <time>2017-05-28T10:41:44Z</time>
      </trkpt>
      <trkpt lat="49.23537" lon="-0.03522">
        <ele>19.2</ele>
        <time>2017-05-28T10:41:50Z</time>
      </trkpt>
      <trkpt lat="49.23532" lon="-0.03533">
        <ele>17.2</ele>
        <time>2017-05-28T10:41:56Z</time>
      </trkpt>
      <trkpt lat="49.23528" lon="-0.03542">
        <ele>17.7</ele>
        <time>2017-05-28T10:42:01Z</time>
      </trkpt>
      <trkpt lat="49.23523" lon="-0.03551">
        <ele>17.9</ele>
        <time>2017-05-28T10:42:07Z</time>
      </trkpt>
      <trkpt lat="49.23517" lon="-0.0356">
        <ele>17.6</ele>
        <time>2017-05-28T10:42:13Z</time>
      </trkpt>
      <trkpt lat="49.23512" lon="-0.03571">
        <ele>18</ele>
        <time>2017-05-28T10:42:19Z</time>
      </trkpt>
      <trkpt lat="49.23508" lon="-0.03581">
        <ele>17.7</ele>
        <time>2017-05-28T10:42:24Z</time>
      </trkpt>
      <trkpt lat="49.23503" lon="-0.03591">
        <ele>18</ele>
        <time>2017-05-28T10:42:30Z</time>
      </trkpt>
      <trkpt lat="49.23497" lon="-0.03601">
        <ele>19.4</ele>
        <time>2017-05-28T10:42:36Z</time>
      </trkpt>
      <trkpt lat="49.23493" lon="-0.03611">
        <ele>19.9</ele>
        <time>2017-05-28T10:42:41Z</time>
      </trkpt>
      <trkpt lat="49.23489" lon="-0.03622">
        <ele>18.9</ele>
        <time>2017-05-28T10:42:47Z</time>
      </trkpt>
      <trkpt lat="49.23484" lon="-0.0363">
        <ele>18.7</ele>
        <time>2017-05-28T10:42:52Z</time>
      </trkpt>
      <trkpt lat="49.23478" lon="-0.03638">
        <ele>18.3</ele>
        <time>2017-05-28T10:42:57Z</time>
      </trkpt>
      <trkpt lat="49.23474" lon="-0.03648">
        <ele>18.8</ele>
        <time>2017-05-28T10:43:03Z</time>
      </trkpt>
      <trkpt lat="49.23469" lon="-0.03657">
        <ele>18.3</ele>
        <time>2017-05-28T10:43:08Z</time>
      </trkpt>
      <trkpt lat="49.23464" lon="-0.03665">
        <ele>16.8</ele>
        <time>2017-05-28T10:43:13Z</time>
      </trkpt>
      <trkpt lat="49.23458" lon="-0.03673">
        <ele>15.5</ele>
        <time>2017-05-28T10:43:19Z</time>
      </trkpt>
      <trkpt lat="49.23452" lon="-0.03682">
        <ele>16.7</ele>
        <time>2017-05-28T10:43:26Z</time>
      </trkpt>
      <trkpt lat="49.23447" lon="-0.03692">
        <ele>16.2</ele>
        <time>2017-05-28T10:43:32Z</time>
      </trkpt>
      <trkpt lat="49.23441" lon="-0.03702">
        <ele>15.7</ele>
        <time>2017-05-28T10:43:38Z</time>
      </trkpt>
      <trkpt lat="49.23436" lon="-0.0371">
        <ele>15.6</ele>
        <time>2017-05-28T10:43:43Z</time>
      </trkpt>
      <trkpt lat="49.23431" lon="-0.0372">
        <ele>15</ele>
        <time>2017-05-28T10:43:48Z</time>
      </trkpt>
      <trkpt lat="49.23427" lon="-0.03729">
        <ele>15.4</ele>
        <time>2017-05-28T10:43:53Z</time>
      </trkpt>
      <trkpt lat="49.23421" lon="-0.03739">
        <ele>14.7</ele>
        <time>2017-05-28T10:43:59Z</time>
      </trkpt>
      <trkpt lat="49.23416" lon="-0.03748">
        <ele>14.1</ele>
        <time>2017-05-28T10:44:05Z</time>
      </trkpt>
      <trkpt lat="49.23411" lon="-0.03756">
        <ele>13</ele>
        <time>2017-05-28T10:44:10Z</time>
      </trkpt>
      <trkpt lat="49.23407" lon="-0.03766">
        <ele>14.9</ele>
        <time>2017-05-28T10:44:15Z</time>
      </trkpt>
      <trkpt lat="49.23402" lon="-0.03774">
        <ele>15.7</ele>
        <time>2017-05-28T10:44:21Z</time>
      </trkpt>
      <trkpt lat="49.23395" lon="-0.03782">
        <ele>13.5</ele>
        <time>2017-05-28T10:44:27Z</time>
      </trkpt>
      <trkpt lat="49.23387" lon="-0.03785">
        <ele>12.5</ele>
        <time>2017-05-28T10:44:33Z</time>
      </trkpt>
      <trkpt lat="49.23382" lon="-0.03783">
        <ele>9.6</ele>
        <time>2017-05-28T10:44:40Z</time>
      </trkpt>
      <trkpt lat="49.23381" lon="-0.03781">
        <ele>8.4</ele>
        <time>2017-05-28T10:45:52Z</time>
      </trkpt>
      <trkpt lat="49.23376" lon="-0.03788">
        <ele>8.2</ele>
        <time>2017-05-28T10:46:04Z</time>
      </trkpt>
      <trkpt lat="49.23375" lon="-0.038">
        <ele>8.9</ele>
        <time>2017-05-28T10:46:11Z</time>
      </trkpt>
      <trkpt lat="49.23373" lon="-0.03811">
        <ele>10</ele>
        <time>2017-05-28T10:46:16Z</time>
      </trkpt>
      <trkpt lat="49.23371" lon="-0.03824">
        <ele>12.3</ele>
        <time>2017-05-28T10:46:22Z</time>
      </trkpt>
      <trkpt lat="49.23366" lon="-0.03834">
        <ele>13.5</ele>
        <time>2017-05-28T10:46:28Z</time>
      </trkpt>
      <trkpt lat="49.23361" lon="-0.03843">
        <ele>15.4</ele>
        <time>2017-05-28T10:46:34Z</time>
      </trkpt>
      <trkpt lat="49.23357" lon="-0.03853">
        <ele>15.7</ele>
        <time>2017-05-28T10:46:40Z</time>
      </trkpt>
      <trkpt lat="49.23351" lon="-0.03862">
        <ele>16.3</ele>
        <time>2017-05-28T10:46:46Z</time>
      </trkpt>
      <trkpt lat="49.23346" lon="-0.03872">
        <ele>16.8</ele>
        <time>2017-05-28T10:46:53Z</time>
      </trkpt>
      <trkpt lat="49.2334" lon="-0.03881">
        <ele>16.3</ele>
        <time>2017-05-28T10:46:59Z</time>
      </trkpt>
      <trkpt lat="49.23335" lon="-0.03892">
        <ele>14.7</ele>
        <time>2017-05-28T10:47:05Z</time>
      </trkpt>
      <trkpt lat="49.2333" lon="-0.03899">
        <ele>13</ele>
        <time>2017-05-28T10:47:11Z</time>
      </trkpt>
      <trkpt lat="49.23325" lon="-0.03909">
        <ele>11.2</ele>
        <time>2017-05-28T10:47:18Z</time>
      </trkpt>
      <trkpt lat="49.2332" lon="-0.03919">
        <ele>13.1</ele>
        <time>2017-05-28T10:47:24Z</time>
      </trkpt>
      <trkpt lat="49.23316" lon="-0.03927">
        <ele>15</ele>
        <time>2017-05-28T10:47:31Z</time>
      </trkpt>
      <trkpt lat="49.23311" lon="-0.03936">
        <ele>15.5</ele>
        <time>2017-05-28T10:47:38Z</time>
      </trkpt>
      <trkpt lat="49.23306" lon="-0.03946">
        <ele>17.9</ele>
        <time>2017-05-28T10:47:44Z</time>
      </trkpt>
      <trkpt lat="49.23302" lon="-0.03954">
        <ele>18.7</ele>
        <time>2017-05-28T10:47:49Z</time>
      </trkpt>
      <trkpt lat="49.23297" lon="-0.03965">
        <ele>20.5</ele>
        <time>2017-05-28T10:47:55Z</time>
      </trkpt>
      <trkpt lat="49.23293" lon="-0.03975">
        <ele>20.8</ele>
        <time>2017-05-28T10:48:01Z</time>
      </trkpt>
      <trkpt lat="49.23288" lon="-0.03985">
        <ele>21.4</ele>
        <time>2017-05-28T10:48:06Z</time>
      </trkpt>
      <trkpt lat="49.23282" lon="-0.03993">
        <ele>21.2</ele>
        <time>2017-05-28T10:48:10Z</time>
      </trkpt>
      <trkpt lat="49.23278" lon="-0.04003">
        <ele>21.2</ele>
        <time>2017-05-28T10:48:16Z</time>
      </trkpt>
      <trkpt lat="49.23273" lon="-0.04011">
        <ele>20.4</ele>
        <time>2017-05-28T10:48:23Z</time>
      </trkpt>
      <trkpt lat="49.23268" lon="-0.0402">
        <ele>22.9</ele>
        <time>2017-05-28T10:48:30Z</time>
      </trkpt>
      <trkpt lat="49.23264" lon="-0.04029">
        <ele>24</ele>
        <time>2017-05-28T10:48:35Z</time>
      </trkpt>
      <trkpt lat="49.2326" lon="-0.04039">
        <ele>24.8</ele>
        <time>2017-05-28T10:48:41Z</time>
      </trkpt>
      <trkpt lat="49.23256" lon="-0.04046">
        <ele>25.1</ele>
        <time>2017-05-28T10:48:48Z</time>
      </trkpt>
      <trkpt lat="49.23251" lon="-0.04056">
        <ele>26</ele>
        <time>2017-05-28T10:48:55Z</time>
      </trkpt>
      <trkpt lat="49.23246" lon="-0.04066">
        <ele>27.2</ele>
        <time>2017-05-28T10:49:01Z</time>
      </trkpt>
      <trkpt lat="49.23243" lon="-0.04076">
        <ele>27.8</ele>
        <time>2017-05-28T10:49:07Z</time>
      </trkpt>
      <trkpt lat="49.23237" lon="-0.04084">
        <ele>29.9</ele>
        <time>2017-05-28T10:49:14Z</time>
      </trkpt>
      <trkpt lat="49.23234" lon="-0.04094">
        <ele>31.1</ele>
        <time>2017-05-28T10:49:20Z</time>
      </trkpt>
      <trkpt lat="49.23229" lon="-0.04104">
        <ele>32.8</ele>
        <time>2017-05-28T10:49:27Z</time>
      </trkpt>
      <trkpt lat="49.23225" lon="-0.04114">
        <ele>35.5</ele>
        <time>2017-05-28T10:49:32Z</time>
      </trkpt>
      <trkpt lat="49.23222" lon="-0.04124">
        <ele>37.1</ele>
        <time>2017-05-28T10:49:39Z</time>
      </trkpt>
      <trkpt lat="49.23218" lon="-0.04133">
        <ele>39.3</ele>
        <time>2017-05-28T10:49:46Z</time>
      </trkpt>
      <trkpt lat="49.23214" lon="-0.04142">
        <ele>37.8</ele>
        <time>2017-05-28T10:49:53Z</time>
      </trkpt>
      <trkpt lat="49.23208" lon="-0.0415">
        <ele>36.9</ele>
        <time>2017-05-28T10:50:00Z</time>
      </trkpt>
      <trkpt lat="49.23203" lon="-0.04158">
        <ele>36.2</ele>
        <time>2017-05-28T10:50:05Z</time>
      </trkpt>
      <trkpt lat="49.23197" lon="-0.04168">
        <ele>36.5</ele>
        <time>2017-05-28T10:50:10Z</time>
      </trkpt>
      <trkpt lat="49.23191" lon="-0.04178">
        <ele>37.1</ele>
        <time>2017-05-28T10:50:15Z</time>
      </trkpt>
      <trkpt lat="49.23187" lon="-0.04187">
        <ele>37.2</ele>
        <time>2017-05-28T10:50:22Z</time>
      </trkpt>
      <trkpt lat="49.23183" lon="-0.04195">
        <ele>35</ele>
        <time>2017-05-28T10:50:29Z</time>
      </trkpt>
      <trkpt lat="49.23178" lon="-0.04202">
        <ele>34.6</ele>
        <time>2017-05-28T10:50:35Z</time>
      </trkpt>
      <trkpt lat="49.23175" lon="-0.04213">
        <ele>35.5</ele>
        <time>2017-05-28T10:50:41Z</time>
      </trkpt>
      <trkpt lat="49.23171" lon="-0.04224">
        <ele>36.2</ele>
        <time>2017-05-28T10:50:47Z</time>
      </trkpt>
      <trkpt lat="49.23167" lon="-0.04234">
        <ele>36.5</ele>
        <time>2017-05-28T10:50:53Z</time>
      </trkpt>
      <trkpt lat="49.23163" lon="-0.04245">
        <ele>36</ele>
        <time>2017-05-28T10:50:59Z</time>
      </trkpt>
      <trkpt lat="49.23161" lon="-0.04256">
        <ele>35</ele>
        <time>2017-05-28T10:51:06Z</time>
      </trkpt>
      <trkpt lat="49.23157" lon="-0.04266">
        <ele>33.5</ele>
        <time>2017-05-28T10:51:13Z</time>
      </trkpt>
      <trkpt lat="49.23154" lon="-0.04278">
        <ele>33.4</ele>
        <time>2017-05-28T10:51:19Z</time>
      </trkpt>
      <trkpt lat="49.23153" lon="-0.0429">
        <ele>32.6</ele>
        <time>2017-05-28T10:51:24Z</time>
      </trkpt>
      <trkpt lat="49.23149" lon="-0.043">
        <ele>31.8</ele>
        <time>2017-05-28T10:51:31Z</time>
      </trkpt>
      <trkpt lat="49.23143" lon="-0.04305">
        <ele>28.5</ele>
        <time>2017-05-28T10:51:38Z</time>
      </trkpt>
      <trkpt lat="49.23139" lon="-0.04316">
        <ele>26.9</ele>
        <time>2017-05-28T10:51:42Z</time>
      </trkpt>
      <trkpt lat="49.23138" lon="-0.04327">
        <ele>23.2</ele>
        <time>2017-05-28T10:51:49Z</time>
      </trkpt>
      <trkpt lat="49.23137" lon="-0.04331">
        <ele>23.4</ele>
        <time>2017-05-28T10:51:56Z</time>
      </trkpt>
      <trkpt lat="49.23131" lon="-0.04338">
        <ele>19.7</ele>
        <time>2017-05-28T11:00:54Z</time>
      </trkpt>
      <trkpt lat="49.23135" lon="-0.04334">
        <ele>22.4</ele>
        <time>2017-05-28T11:02:26Z</time>
      </trkpt>
      <trkpt lat="49.23128" lon="-0.04326">
        <ele>26.3</ele>
        <time>2017-05-28T11:02:31Z</time>
      </trkpt>
      <trkpt lat="49.23123" lon="-0.04317">
        <ele>25.9</ele>
        <time>2017-05-28T11:02:38Z</time>
      </trkpt>
      <trkpt lat="49.23119" lon="-0.04307">
        <ele>26.9</ele>
        <time>2017-05-28T11:02:44Z</time>
      </trkpt>
      <trkpt lat="49.23113" lon="-0.043">
        <ele>30.9</ele>
        <time>2017-05-28T11:02:50Z</time>
      </trkpt>
      <trkpt lat="49.23113" lon="-0.04299">
        <ele>32.2</ele>
        <time>2017-05-28T11:02:57Z</time>
      </trkpt>
      <trkpt lat="49.23108" lon="-0.04291">
        <ele>29.8</ele>
        <time>2017-05-28T11:03:08Z</time>
      </trkpt>
      <trkpt lat="49.23101" lon="-0.04285">
        <ele>27.5</ele>
        <time>2017-05-28T11:03:14Z</time>
      </trkpt>
      <trkpt lat="49.23096" lon="-0.04275">
        <ele>26.6</ele>
        <time>2017-05-28T11:03:20Z</time>
      </trkpt>
      <trkpt lat="49.23091" lon="-0.04265">
        <ele>26.3</ele>
        <time>2017-05-28T11:03:26Z</time>
      </trkpt>
      <trkpt lat="49.23086" lon="-0.04257">
        <ele>22.6</ele>
        <time>2017-05-28T11:03:33Z</time>
      </trkpt>
      <trkpt lat="49.23092" lon="-0.04264">
        <ele>20.9</ele>
        <time>2017-05-28T11:04:05Z</time>
      </trkpt>
      <trkpt lat="49.23095" lon="-0.04272">
        <ele>21.3</ele>
        <time>2017-05-28T11:04:12Z</time>
      </trkpt>
      <trkpt lat="49.23101" lon="-0.04278">
        <ele>22.4</ele>
        <time>2017-05-28T11:04:18Z</time>
      </trkpt>
      <trkpt lat="49.23106" lon="-0.04289">
        <ele>21.5</ele>
        <time>2017-05-28T11:04:24Z</time>
      </trkpt>
      <trkpt lat="49.23109" lon="-0.04292">
        <ele>21.8</ele>
        <time>2017-05-28T11:04:31Z</time>
      </trkpt>
      <trkpt lat="49.23111" lon="-0.04296">
        <ele>22.1</ele>
        <time>2017-05-28T11:04:38Z</time>
      </trkpt>
      <trkpt lat="49.23116" lon="-0.04305">
        <ele>21.5</ele>
        <time>2017-05-28T11:04:45Z</time>
      </trkpt>
      <trkpt lat="49.2312" lon="-0.04316">
        <ele>19.9</ele>
        <time>2017-05-28T11:04:52Z</time>
      </trkpt>
      <trkpt lat="49.23123" lon="-0.04327">
        <ele>16.8</ele>
        <time>2017-05-28T11:04:58Z</time>
      </trkpt>
      <trkpt lat="49.23127" lon="-0.04335">
        <ele>16.3</ele>
        <time>2017-05-28T11:05:05Z</time>
      </trkpt>
      <trkpt lat="49.23128" lon="-0.04339">
        <ele>17.2</ele>
        <time>2017-05-28T11:05:12Z</time>
      </trkpt>
      <trkpt lat="49.23128" lon="-0.04331">
        <ele>18.4</ele>
        <time>2017-05-28T11:05:27Z</time>
      </trkpt>
      <trkpt lat="49.23127" lon="-0.04346">
        <ele>15.1</ele>
        <time>2017-05-28T11:05:40Z</time>
      </trkpt>
      <trkpt lat="49.23131" lon="-0.04346">
        <ele>16.1</ele>
        <time>2017-05-28T11:05:47Z</time>
      </trkpt>
      <trkpt lat="49.23136" lon="-0.04336">
        <ele>17.5</ele>
        <time>2017-05-28T11:05:54Z</time>
      </trkpt>
      <trkpt lat="49.23139" lon="-0.04324">
        <ele>17.4</ele>
        <time>2017-05-28T11:06:01Z</time>
      </trkpt>
      <trkpt lat="49.23143" lon="-0.04319">
        <ele>17.8</ele>
        <time>2017-05-28T11:06:08Z</time>
      </trkpt>
      <trkpt lat="49.23144" lon="-0.0432">
        <ele>17.5</ele>
        <time>2017-05-28T11:06:15Z</time>
      </trkpt>
      <trkpt lat="49.23154" lon="-0.0433">
        <ele>18.5</ele>
        <time>2017-05-28T11:07:21Z</time>
      </trkpt>
      <trkpt lat="49.23152" lon="-0.04325">
        <ele>18.2</ele>
        <time>2017-05-28T11:07:28Z</time>
      </trkpt>
      <trkpt lat="49.23144" lon="-0.04315">
        <ele>17.6</ele>
        <time>2017-05-28T11:07:31Z</time>
      </trkpt>
      <trkpt lat="49.23144" lon="-0.04309">
        <ele>17.3</ele>
        <time>2017-05-28T11:07:38Z</time>
      </trkpt>
      <trkpt lat="49.23145" lon="-0.0431">
        <ele>17.1</ele>
        <time>2017-05-28T11:07:45Z</time>
      </trkpt>
      <trkpt lat="49.23149" lon="-0.0432">
        <ele>16.8</ele>
        <time>2017-05-28T11:07:55Z</time>
      </trkpt>
      <trkpt lat="49.23152" lon="-0.04323">
        <ele>16.6</ele>
        <time>2017-05-28T11:08:02Z</time>
      </trkpt>
      <trkpt lat="49.23152" lon="-0.04319">
        <ele>14.5</ele>
        <time>2017-05-28T11:08:27Z</time>
      </trkpt>
      <trkpt lat="49.23154" lon="-0.04327">
        <ele>14.4</ele>
        <time>2017-05-28T11:08:34Z</time>
      </trkpt>
      <trkpt lat="49.23151" lon="-0.04326">
        <ele>14</ele>
        <time>2017-05-28T11:08:41Z</time>
      </trkpt>
      <trkpt lat="49.23148" lon="-0.0433">
        <ele>14.6</ele>
        <time>2017-05-28T11:08:57Z</time>
      </trkpt>
      <trkpt lat="49.23158" lon="-0.04328">
        <ele>15.5</ele>
        <time>2017-05-28T11:08:31Z</time>
      </trkpt>
      <trkpt lat="49.23155" lon="-0.04325">
        <ele>15.1</ele>
        <time>2017-05-28T11:09:44Z</time>
      </trkpt>
      <trkpt lat="49.23156" lon="-0.04319">
        <ele>15.6</ele>
        <time>2017-05-28T11:10:25Z</time>
      </trkpt>
      <trkpt lat="49.23152" lon="-0.04313">
        <ele>15.3</ele>
        <time>2017-05-28T11:10:32Z</time>
      </trkpt>
      <trkpt lat="49.23149" lon="-0.04305">
        <ele>18.3</ele>
        <time>2017-05-28T11:10:39Z</time>
      </trkpt>
      <trkpt lat="49.23145" lon="-0.04295">
        <ele>17.5</ele>
        <time>2017-05-28T11:10:44Z</time>
      </trkpt>
      <trkpt lat="49.23138" lon="-0.04297">
        <ele>10.9</ele>
        <time>2017-05-28T11:10:57Z</time>
      </trkpt>
      <trkpt lat="49.23131" lon="-0.04298">
        <ele>18.1</ele>
        <time>2017-05-28T11:11:01Z</time>
      </trkpt>
      <trkpt lat="49.23122" lon="-0.04296">
        <ele>16.1</ele>
        <time>2017-05-28T11:11:08Z</time>
      </trkpt>
      <trkpt lat="49.23116" lon="-0.04293">
        <ele>13.9</ele>
        <time>2017-05-28T11:11:15Z</time>
      </trkpt>
      <trkpt lat="49.2311" lon="-0.04294">
        <ele>17.7</ele>
        <time>2017-05-28T11:11:22Z</time>
      </trkpt>
      <trkpt lat="49.23104" lon="-0.04291">
        <ele>16.2</ele>
        <time>2017-05-28T11:11:53Z</time>
      </trkpt>
      <trkpt lat="49.231" lon="-0.0429">
        <ele>17.1</ele>
        <time>2017-05-28T11:12:00Z</time>
      </trkpt>
      <trkpt lat="49.23098" lon="-0.04288">
        <ele>18.1</ele>
        <time>2017-05-28T11:12:07Z</time>
      </trkpt>
      <trkpt lat="49.23092" lon="-0.04283">
        <ele>16.6</ele>
        <time>2017-05-28T11:12:38Z</time>
      </trkpt>
      <trkpt lat="49.23088" lon="-0.04283">
        <ele>17.5</ele>
        <time>2017-05-28T11:12:45Z</time>
      </trkpt>
      <trkpt lat="49.23086" lon="-0.04276">
        <ele>20.2</ele>
        <time>2017-05-28T11:13:01Z</time>
      </trkpt>
      <trkpt lat="49.23081" lon="-0.04271">
        <ele>18.4</ele>
        <time>2017-05-28T11:13:52Z</time>
      </trkpt>
      <trkpt lat="49.23077" lon="-0.04271">
        <ele>17.2</ele>
        <time>2017-05-28T11:13:59Z</time>
      </trkpt>
      <trkpt lat="49.23074" lon="-0.04271">
        <ele>15.8</ele>
        <time>2017-05-28T11:14:06Z</time>
      </trkpt>
      <trkpt lat="49.23067" lon="-0.04273">
        <ele>14.1</ele>
        <time>2017-05-28T11:14:37Z</time>
      </trkpt>
      <trkpt lat="49.23061" lon="-0.04273">
        <ele>16.7</ele>
        <time>2017-05-28T11:16:15Z</time>
      </trkpt>
      <trkpt lat="49.2306" lon="-0.04262">
        <ele>23</ele>
        <time>2017-05-28T11:21:04Z</time>
      </trkpt>
      <trkpt lat="49.23056" lon="-0.04251">
        <ele>22.3</ele>
        <time>2017-05-28T11:21:09Z</time>
      </trkpt>
      <trkpt lat="49.2305" lon="-0.04243">
        <ele>21.4</ele>
        <time>2017-05-28T11:21:15Z</time>
      </trkpt>
      <trkpt lat="49.2305" lon="-0.04232">
        <ele>19.7</ele>
        <time>2017-05-28T11:21:22Z</time>
      </trkpt>
      <trkpt lat="49.23052" lon="-0.04223">
        <ele>18.8</ele>
        <time>2017-05-28T11:21:29Z</time>
      </trkpt>
      <trkpt lat="49.23056" lon="-0.04212">
        <ele>18.5</ele>
        <time>2017-05-28T11:21:34Z</time>
      </trkpt>
      <trkpt lat="49.23061" lon="-0.04204">
        <ele>21.3</ele>
        <time>2017-05-28T11:21:40Z</time>
      </trkpt>
      <trkpt lat="49.23065" lon="-0.04196">
        <ele>19.5</ele>
        <time>2017-05-28T11:21:47Z</time>
      </trkpt>
      <trkpt lat="49.23071" lon="-0.04203">
        <ele>14</ele>
        <time>2017-05-28T11:22:26Z</time>
      </trkpt>
      <trkpt lat="49.23083" lon="-0.04226">
        <ele>18.9</ele>
        <time>2017-05-28T11:22:32Z</time>
      </trkpt>
      <trkpt lat="49.23089" lon="-0.0424">
        <ele>19.9</ele>
        <time>2017-05-28T11:22:34Z</time>
      </trkpt>
      <trkpt lat="49.23094" lon="-0.04252">
        <ele>21.7</ele>
        <time>2017-05-28T11:22:36Z</time>
      </trkpt>
      <trkpt lat="49.23098" lon="-0.04261">
        <ele>22.2</ele>
        <time>2017-05-28T11:22:38Z</time>
      </trkpt>
      <trkpt lat="49.23104" lon="-0.04274">
        <ele>22.6</ele>
        <time>2017-05-28T11:22:41Z</time>
      </trkpt>
      <trkpt lat="49.2311" lon="-0.04287">
        <ele>23.5</ele>
        <time>2017-05-28T11:22:44Z</time>
      </trkpt>
      <trkpt lat="49.23115" lon="-0.04297">
        <ele>23.9</ele>
        <time>2017-05-28T11:22:46Z</time>
      </trkpt>
      <trkpt lat="49.23121" lon="-0.04307">
        <ele>23.4</ele>
        <time>2017-05-28T11:22:49Z</time>
      </trkpt>
      <trkpt lat="49.23122" lon="-0.0431">
        <ele>22.9</ele>
        <time>2017-05-28T11:22:56Z</time>
      </trkpt>
      <trkpt lat="49.23128" lon="-0.04317">
        <ele>22.9</ele>
        <time>2017-05-28T11:23:01Z</time>
      </trkpt>
      <trkpt lat="49.23131" lon="-0.04327">
        <ele>23</ele>
        <time>2017-05-28T11:23:06Z</time>
      </trkpt>
      <trkpt lat="49.23131" lon="-0.04343">
        <ele>22.6</ele>
        <time>2017-05-28T11:23:10Z</time>
      </trkpt>
      <trkpt lat="49.23129" lon="-0.04356">
        <ele>23.7</ele>
        <time>2017-05-28T11:23:12Z</time>
      </trkpt>
      <trkpt lat="49.23127" lon="-0.04371">
        <ele>23.6</ele>
        <time>2017-05-28T11:23:14Z</time>
      </trkpt>
      <trkpt lat="49.23125" lon="-0.04385">
        <ele>24</ele>
        <time>2017-05-28T11:23:16Z</time>
      </trkpt>
      <trkpt lat="49.23122" lon="-0.04396">
        <ele>24.7</ele>
        <time>2017-05-28T11:23:18Z</time>
      </trkpt>
      <trkpt lat="49.23118" lon="-0.04408">
        <ele>26.1</ele>
        <time>2017-05-28T11:23:22Z</time>
      </trkpt>
      <trkpt lat="49.23113" lon="-0.04421">
        <ele>29.5</ele>
        <time>2017-05-28T11:23:25Z</time>
      </trkpt>
      <trkpt lat="49.23108" lon="-0.04434">
        <ele>30.9</ele>
        <time>2017-05-28T11:23:27Z</time>
      </trkpt>
      <trkpt lat="49.23105" lon="-0.0445">
        <ele>32.7</ele>
        <time>2017-05-28T11:23:29Z</time>
      </trkpt>
      <trkpt lat="49.23101" lon="-0.04466">
        <ele>34.2</ele>
        <time>2017-05-28T11:23:31Z</time>
      </trkpt>
      <trkpt lat="49.23097" lon="-0.04486">
        <ele>33.5</ele>
        <time>2017-05-28T11:23:33Z</time>
      </trkpt>
      <trkpt lat="49.23094" lon="-0.04505">
        <ele>33.7</ele>
        <time>2017-05-28T11:23:35Z</time>
      </trkpt>
      <trkpt lat="49.23091" lon="-0.04527">
        <ele>34.1</ele>
        <time>2017-05-28T11:23:37Z</time>
      </trkpt>
      <trkpt lat="49.23089" lon="-0.04539">
        <ele>34.2</ele>
        <time>2017-05-28T11:23:38Z</time>
      </trkpt>
      <trkpt lat="49.23088" lon="-0.0455">
        <ele>34.2</ele>
        <time>2017-05-28T11:23:39Z</time>
      </trkpt>
      <trkpt lat="49.23083" lon="-0.04571">
        <ele>32.8</ele>
        <time>2017-05-28T11:23:41Z</time>
      </trkpt>
      <trkpt lat="49.2308" lon="-0.04587">
        <ele>31.9</ele>
        <time>2017-05-28T11:23:43Z</time>
      </trkpt>
      <trkpt lat="49.23075" lon="-0.04601">
        <ele>31.7</ele>
        <time>2017-05-28T11:23:45Z</time>
      </trkpt>
      <trkpt lat="49.2307" lon="-0.04618">
        <ele>32.3</ele>
        <time>2017-05-28T11:23:47Z</time>
      </trkpt>
      <trkpt lat="49.23064" lon="-0.04639">
        <ele>33.5</ele>
        <time>2017-05-28T11:23:49Z</time>
      </trkpt>
      <trkpt lat="49.23061" lon="-0.0465">
        <ele>34.7</ele>
        <time>2017-05-28T11:23:50Z</time>
      </trkpt>
      <trkpt lat="49.23057" lon="-0.04661">
        <ele>35.2</ele>
        <time>2017-05-28T11:23:51Z</time>
      </trkpt>
      <trkpt lat="49.23053" lon="-0.04673">
        <ele>35.4</ele>
        <time>2017-05-28T11:23:52Z</time>
      </trkpt>
      <trkpt lat="49.2305" lon="-0.04684">
        <ele>35.4</ele>
        <time>2017-05-28T11:23:53Z</time>
      </trkpt>
      <trkpt lat="49.23046" lon="-0.04695">
        <ele>35.6</ele>
        <time>2017-05-28T11:23:54Z</time>
      </trkpt>
      <trkpt lat="49.23042" lon="-0.04707">
        <ele>35.6</ele>
        <time>2017-05-28T11:23:55Z</time>
      </trkpt>
      <trkpt lat="49.23039" lon="-0.0472">
        <ele>35.5</ele>
        <time>2017-05-28T11:23:56Z</time>
      </trkpt>
      <trkpt lat="49.23035" lon="-0.04731">
        <ele>35.6</ele>
        <time>2017-05-28T11:23:57Z</time>
      </trkpt>
      <trkpt lat="49.23032" lon="-0.04743">
        <ele>35.7</ele>
        <time>2017-05-28T11:23:58Z</time>
      </trkpt>
      <trkpt lat="49.23028" lon="-0.04754">
        <ele>35.7</ele>
        <time>2017-05-28T11:23:59Z</time>
      </trkpt>
      <trkpt lat="49.23025" lon="-0.04766">
        <ele>35.6</ele>
        <time>2017-05-28T11:24:00Z</time>
      </trkpt>
      <trkpt lat="49.23021" lon="-0.04778">
        <ele>35.8</ele>
        <time>2017-05-28T11:24:01Z</time>
      </trkpt>
      <trkpt lat="49.23017" lon="-0.0479">
        <ele>36</ele>
        <time>2017-05-28T11:24:02Z</time>
      </trkpt>
      <trkpt lat="49.23014" lon="-0.04802">
        <ele>36.1</ele>
        <time>2017-05-28T11:24:03Z</time>
      </trkpt>
      <trkpt lat="49.2301" lon="-0.04815">
        <ele>36.4</ele>
        <time>2017-05-28T11:24:04Z</time>
      </trkpt>
      <trkpt lat="49.23006" lon="-0.04828">
        <ele>36.4</ele>
        <time>2017-05-28T11:24:05Z</time>
      </trkpt>
      <trkpt lat="49.23002" lon="-0.0484">
        <ele>36.8</ele>
        <time>2017-05-28T11:24:06Z</time>
      </trkpt>
      <trkpt lat="49.22999" lon="-0.04853">
        <ele>37.1</ele>
        <time>2017-05-28T11:24:07Z</time>
      </trkpt>
      <trkpt lat="49.22996" lon="-0.04864">
        <ele>37.6</ele>
        <time>2017-05-28T11:24:08Z</time>
      </trkpt>
      <trkpt lat="49.22993" lon="-0.04876">
        <ele>37.3</ele>
        <time>2017-05-28T11:24:09Z</time>
      </trkpt>
      <trkpt lat="49.2299" lon="-0.04886">
        <ele>37.3</ele>
        <time>2017-05-28T11:24:10Z</time>
      </trkpt>
      <trkpt lat="49.22984" lon="-0.04901">
        <ele>37.8</ele>
        <time>2017-05-28T11:24:12Z</time>
      </trkpt>
      <trkpt lat="49.22981" lon="-0.04912">
        <ele>38.4</ele>
        <time>2017-05-28T11:24:14Z</time>
      </trkpt>
      <trkpt lat="49.22977" lon="-0.04923">
        <ele>38.8</ele>
        <time>2017-05-28T11:24:16Z</time>
      </trkpt>
      <trkpt lat="49.22972" lon="-0.04936">
        <ele>39.3</ele>
        <time>2017-05-28T11:24:18Z</time>
      </trkpt>
      <trkpt lat="49.22967" lon="-0.04951">
        <ele>39.7</ele>
        <time>2017-05-28T11:24:20Z</time>
      </trkpt>
      <trkpt lat="49.22962" lon="-0.04967">
        <ele>40.2</ele>
        <time>2017-05-28T11:24:22Z</time>
      </trkpt>
      <trkpt lat="49.22956" lon="-0.04985">
        <ele>40.4</ele>
        <time>2017-05-28T11:24:24Z</time>
      </trkpt>
      <trkpt lat="49.22952" lon="-0.04996">
        <ele>40.4</ele>
        <time>2017-05-28T11:24:25Z</time>
      </trkpt>
      <trkpt lat="49.22949" lon="-0.05006">
        <ele>40.5</ele>
        <time>2017-05-28T11:24:26Z</time>
      </trkpt>
      <trkpt lat="49.22945" lon="-0.05017">
        <ele>40.5</ele>
        <time>2017-05-28T11:24:27Z</time>
      </trkpt>
      <trkpt lat="49.22942" lon="-0.05028">
        <ele>40.4</ele>
        <time>2017-05-28T11:24:28Z</time>
      </trkpt>
      <trkpt lat="49.22939" lon="-0.05041">
        <ele>40.3</ele>
        <time>2017-05-28T11:24:29Z</time>
      </trkpt>
      <trkpt lat="49.22936" lon="-0.05051">
        <ele>40.1</ele>
        <time>2017-05-28T11:24:30Z</time>
      </trkpt>
      <trkpt lat="49.22931" lon="-0.05069">
        <ele>39.8</ele>
        <time>2017-05-28T11:24:32Z</time>
      </trkpt>
      <trkpt lat="49.22928" lon="-0.05079">
        <ele>39.2</ele>
        <time>2017-05-28T11:24:33Z</time>
      </trkpt>
      <trkpt lat="49.22924" lon="-0.0509">
        <ele>38.9</ele>
        <time>2017-05-28T11:24:34Z</time>
      </trkpt>
      <trkpt lat="49.22921" lon="-0.05102">
        <ele>39.3</ele>
        <time>2017-05-28T11:24:35Z</time>
      </trkpt>
      <trkpt lat="49.22917" lon="-0.05114">
        <ele>39.2</ele>
        <time>2017-05-28T11:24:36Z</time>
      </trkpt>
      <trkpt lat="49.22912" lon="-0.05126">
        <ele>38.9</ele>
        <time>2017-05-28T11:24:37Z</time>
      </trkpt>
      <trkpt lat="49.22908" lon="-0.05141">
        <ele>38.8</ele>
        <time>2017-05-28T11:24:38Z</time>
      </trkpt>
      <trkpt lat="49.22904" lon="-0.05157">
        <ele>38.7</ele>
        <time>2017-05-28T11:24:39Z</time>
      </trkpt>
      <trkpt lat="49.229" lon="-0.05173">
        <ele>38.7</ele>
        <time>2017-05-28T11:24:40Z</time>
      </trkpt>
      <trkpt lat="49.22895" lon="-0.05189">
        <ele>38.7</ele>
        <time>2017-05-28T11:24:41Z</time>
      </trkpt>
      <trkpt lat="49.22889" lon="-0.05204">
        <ele>39</ele>
        <time>2017-05-28T11:24:42Z</time>
      </trkpt>
      <trkpt lat="49.22884" lon="-0.05221">
        <ele>38.5</ele>
        <time>2017-05-28T11:24:43Z</time>
      </trkpt>
      <trkpt lat="49.22878" lon="-0.05237">
        <ele>37.9</ele>
        <time>2017-05-28T11:24:44Z</time>
      </trkpt>
      <trkpt lat="49.22873" lon="-0.05254">
        <ele>37</ele>
        <time>2017-05-28T11:24:45Z</time>
      </trkpt>
      <trkpt lat="49.22867" lon="-0.05272">
        <ele>37.6</ele>
        <time>2017-05-28T11:24:46Z</time>
      </trkpt>
      <trkpt lat="49.22861" lon="-0.05292">
        <ele>37.9</ele>
        <time>2017-05-28T11:24:47Z</time>
      </trkpt>
      <trkpt lat="49.22855" lon="-0.05311">
        <ele>37.8</ele>
        <time>2017-05-28T11:24:48Z</time>
      </trkpt>
      <trkpt lat="49.2285" lon="-0.05331">
        <ele>37.3</ele>
        <time>2017-05-28T11:24:49Z</time>
      </trkpt>
      <trkpt lat="49.22843" lon="-0.05351">
        <ele>37.7</ele>
        <time>2017-05-28T11:24:50Z</time>
      </trkpt>
      <trkpt lat="49.22838" lon="-0.05369">
        <ele>37.9</ele>
        <time>2017-05-28T11:24:51Z</time>
      </trkpt>
      <trkpt lat="49.22832" lon="-0.05388">
        <ele>38.1</ele>
        <time>2017-05-28T11:24:52Z</time>
      </trkpt>
      <trkpt lat="49.22826" lon="-0.05407">
        <ele>38.5</ele>
        <time>2017-05-28T11:24:53Z</time>
      </trkpt>
      <trkpt lat="49.2282" lon="-0.05428">
        <ele>38.4</ele>
        <time>2017-05-28T11:24:54Z</time>
      </trkpt>
      <trkpt lat="49.22815" lon="-0.05448">
        <ele>38.8</ele>
        <time>2017-05-28T11:24:55Z</time>
      </trkpt>
      <trkpt lat="49.22808" lon="-0.05469">
        <ele>38.1</ele>
        <time>2017-05-28T11:24:56Z</time>
      </trkpt>
      <trkpt lat="49.22802" lon="-0.0549">
        <ele>36.3</ele>
        <time>2017-05-28T11:24:57Z</time>
      </trkpt>
      <trkpt lat="49.22795" lon="-0.05514">
        <ele>34.8</ele>
        <time>2017-05-28T11:24:58Z</time>
      </trkpt>
      <trkpt lat="49.22788" lon="-0.05536">
        <ele>33.6</ele>
        <time>2017-05-28T11:24:59Z</time>
      </trkpt>
      <trkpt lat="49.22781" lon="-0.0556">
        <ele>32.5</ele>
        <time>2017-05-28T11:25:00Z</time>
      </trkpt>
      <trkpt lat="49.22772" lon="-0.05587">
        <ele>30.9</ele>
        <time>2017-05-28T11:25:01Z</time>
      </trkpt>
      <trkpt lat="49.22764" lon="-0.05612">
        <ele>30.8</ele>
        <time>2017-05-28T11:25:02Z</time>
      </trkpt>
    </trkseg>
  </trk>
</gpx>